<?xml version="1.0" encoding="UTF-8" standalone="no" ?>
<gpx xmlns="http://www.topografix.com/GPX/1/1" xmlns:xsi="http://www.w3.org/2001/XMLSchema-instance" xsi:schemaLocation="http://www.topografix.com/GPX/1/1 http://www.topografix.com/GPX/1/1/gpx.xsd" version="1.1" creator="VisuGPX - https://www.visugpx.com">
  <metadata>
    <name>Le tour de chez Olive</name>
    <desc><![CDATA[Petite ballade autour de chez Olive, dans la Valmasque.]]></desc>
  </metadata>
  <trk>
    <name><![CDATA[9 avr. 2011 14:41:04]]></name>
    <cmt><![CDATA[9 avr. 2011 14:41:04]]></cmt>
    <trkseg>
      <trkpt lat="43.62174" lon="7.05192">
        <ele>154</ele>
        <time>2011-04-09T12:41:05Z</time>
      </trkpt>
      <trkpt lat="43.62175" lon="7.05192">
        <ele>148</ele>
        <time>2011-04-09T12:43:30Z</time>
      </trkpt>
      <trkpt lat="43.62169" lon="7.05189">
        <ele>147</ele>
        <time>2011-04-09T12:44:30Z</time>
      </trkpt>
      <trkpt lat="43.62152" lon="7.05155">
        <ele>146</ele>
        <time>2011-04-09T12:44:51Z</time>
      </trkpt>
      <trkpt lat="43.62148" lon="7.05157">
        <ele>146</ele>
        <time>2011-04-09T12:45:01Z</time>
      </trkpt>
      <trkpt lat="43.62139" lon="7.05163">
        <ele>146</ele>
        <time>2011-04-09T12:45:13Z</time>
      </trkpt>
      <trkpt lat="43.62136" lon="7.05168">
        <ele>146</ele>
        <time>2011-04-09T12:45:17Z</time>
      </trkpt>
      <trkpt lat="43.62132" lon="7.05164">
        <ele>145</ele>
        <time>2011-04-09T12:45:31Z</time>
      </trkpt>
      <trkpt lat="43.62125" lon="7.05145">
        <ele>144</ele>
        <time>2011-04-09T12:45:48Z</time>
      </trkpt>
      <trkpt lat="43.62122" lon="7.05145">
        <ele>143</ele>
        <time>2011-04-09T12:45:55Z</time>
      </trkpt>
      <trkpt lat="43.62115" lon="7.05149">
        <ele>143</ele>
        <time>2011-04-09T12:46:05Z</time>
      </trkpt>
      <trkpt lat="43.62114" lon="7.05156">
        <ele>143</ele>
        <time>2011-04-09T12:46:08Z</time>
      </trkpt>
      <trkpt lat="43.62095" lon="7.05252">
        <ele>139</ele>
        <time>2011-04-09T12:46:34Z</time>
      </trkpt>
      <trkpt lat="43.62089" lon="7.05276">
        <ele>135</ele>
        <time>2011-04-09T12:46:39Z</time>
      </trkpt>
      <trkpt lat="43.62098" lon="7.0537">
        <ele>132</ele>
        <time>2011-04-09T12:47:03Z</time>
      </trkpt>
      <trkpt lat="43.62104" lon="7.05385">
        <ele>132</ele>
        <time>2011-04-09T12:47:07Z</time>
      </trkpt>
      <trkpt lat="43.62106" lon="7.05391">
        <ele>129</ele>
        <time>2011-04-09T12:47:22Z</time>
      </trkpt>
      <trkpt lat="43.62114" lon="7.05402">
        <ele>127</ele>
        <time>2011-04-09T12:47:30Z</time>
      </trkpt>
      <trkpt lat="43.62145" lon="7.0543">
        <ele>125</ele>
        <time>2011-04-09T12:47:44Z</time>
      </trkpt>
      <trkpt lat="43.62189" lon="7.05504">
        <ele>124</ele>
        <time>2011-04-09T12:48:09Z</time>
      </trkpt>
      <trkpt lat="43.62231" lon="7.05533">
        <ele>125</ele>
        <time>2011-04-09T12:48:25Z</time>
      </trkpt>
      <trkpt lat="43.62233" lon="7.05539">
        <ele>125</ele>
        <time>2011-04-09T12:48:27Z</time>
      </trkpt>
      <trkpt lat="43.62231" lon="7.05549">
        <ele>124</ele>
        <time>2011-04-09T12:48:44Z</time>
      </trkpt>
      <trkpt lat="43.62216" lon="7.05565">
        <ele>124</ele>
        <time>2011-04-09T12:48:50Z</time>
      </trkpt>
      <trkpt lat="43.6221" lon="7.05568">
        <ele>123</ele>
        <time>2011-04-09T12:48:52Z</time>
      </trkpt>
      <trkpt lat="43.62205" lon="7.05569">
        <ele>123</ele>
        <time>2011-04-09T12:48:54Z</time>
      </trkpt>
      <trkpt lat="43.62199" lon="7.05564">
        <ele>123</ele>
        <time>2011-04-09T12:48:57Z</time>
      </trkpt>
      <trkpt lat="43.62147" lon="7.05483">
        <ele>124</ele>
        <time>2011-04-09T12:49:28Z</time>
      </trkpt>
      <trkpt lat="43.62134" lon="7.05446">
        <ele>124</ele>
        <time>2011-04-09T12:49:37Z</time>
      </trkpt>
      <trkpt lat="43.62125" lon="7.05438">
        <ele>124</ele>
        <time>2011-04-09T12:49:40Z</time>
      </trkpt>
      <trkpt lat="43.62093" lon="7.05436">
        <ele>124</ele>
        <time>2011-04-09T12:49:51Z</time>
      </trkpt>
      <trkpt lat="43.62049" lon="7.05447">
        <ele>124</ele>
        <time>2011-04-09T12:50:24Z</time>
      </trkpt>
      <trkpt lat="43.62049" lon="7.05454">
        <ele>124</ele>
        <time>2011-04-09T12:50:32Z</time>
      </trkpt>
      <trkpt lat="43.62052" lon="7.05459">
        <ele>123</ele>
        <time>2011-04-09T12:50:35Z</time>
      </trkpt>
      <trkpt lat="43.6206" lon="7.05468">
        <ele>123</ele>
        <time>2011-04-09T12:50:39Z</time>
      </trkpt>
      <trkpt lat="43.62061" lon="7.0546">
        <ele>122</ele>
        <time>2011-04-09T12:50:44Z</time>
      </trkpt>
      <trkpt lat="43.62063" lon="7.05461">
        <ele>122</ele>
        <time>2011-04-09T12:51:30Z</time>
      </trkpt>
      <trkpt lat="43.62067" lon="7.05458">
        <ele>121</ele>
        <time>2011-04-09T12:51:39Z</time>
      </trkpt>
      <trkpt lat="43.62064" lon="7.05446">
        <ele>119</ele>
        <time>2011-04-09T12:52:46Z</time>
      </trkpt>
      <trkpt lat="43.62058" lon="7.05444">
        <ele>119</ele>
        <time>2011-04-09T12:52:49Z</time>
      </trkpt>
      <trkpt lat="43.62053" lon="7.05443">
        <ele>119</ele>
        <time>2011-04-09T12:52:52Z</time>
      </trkpt>
      <trkpt lat="43.62051" lon="7.0544">
        <ele>119</ele>
        <time>2011-04-09T12:53:00Z</time>
      </trkpt>
      <trkpt lat="43.62036" lon="7.05375">
        <ele>120</ele>
        <time>2011-04-09T12:53:33Z</time>
      </trkpt>
      <trkpt lat="43.62011" lon="7.0524">
        <ele>121</ele>
        <time>2011-04-09T12:54:07Z</time>
      </trkpt>
      <trkpt lat="43.62036" lon="7.05096">
        <ele>123</ele>
        <time>2011-04-09T12:54:39Z</time>
      </trkpt>
      <trkpt lat="43.62046" lon="7.05027">
        <ele>124</ele>
        <time>2011-04-09T12:54:52Z</time>
      </trkpt>
      <trkpt lat="43.62041" lon="7.05013">
        <ele>124</ele>
        <time>2011-04-09T12:54:55Z</time>
      </trkpt>
      <trkpt lat="43.62034" lon="7.05002">
        <ele>124</ele>
        <time>2011-04-09T12:54:58Z</time>
      </trkpt>
      <trkpt lat="43.61995" lon="7.04968">
        <ele>119</ele>
        <time>2011-04-09T12:55:08Z</time>
      </trkpt>
      <trkpt lat="43.61982" lon="7.04965">
        <ele>119</ele>
        <time>2011-04-09T12:55:11Z</time>
      </trkpt>
      <trkpt lat="43.6193" lon="7.04964">
        <ele>123</ele>
        <time>2011-04-09T12:55:21Z</time>
      </trkpt>
      <trkpt lat="43.61901" lon="7.04964">
        <ele>122</ele>
        <time>2011-04-09T12:55:27Z</time>
      </trkpt>
      <trkpt lat="43.61857" lon="7.04954">
        <ele>123</ele>
        <time>2011-04-09T12:55:40Z</time>
      </trkpt>
      <trkpt lat="43.61836" lon="7.04919">
        <ele>125</ele>
        <time>2011-04-09T12:55:50Z</time>
      </trkpt>
      <trkpt lat="43.618" lon="7.04809">
        <ele>130</ele>
        <time>2011-04-09T12:56:20Z</time>
      </trkpt>
      <trkpt lat="43.6173" lon="7.04678">
        <ele>135</ele>
        <time>2011-04-09T12:56:53Z</time>
      </trkpt>
      <trkpt lat="43.61703" lon="7.04635">
        <ele>136</ele>
        <time>2011-04-09T12:57:02Z</time>
      </trkpt>
      <trkpt lat="43.61694" lon="7.04608">
        <ele>137</ele>
        <time>2011-04-09T12:57:06Z</time>
      </trkpt>
      <trkpt lat="43.61639" lon="7.04447">
        <ele>140</ele>
        <time>2011-04-09T12:57:38Z</time>
      </trkpt>
      <trkpt lat="43.61621" lon="7.04395">
        <ele>141</ele>
        <time>2011-04-09T12:57:49Z</time>
      </trkpt>
      <trkpt lat="43.61621" lon="7.0436">
        <ele>141</ele>
        <time>2011-04-09T12:57:56Z</time>
      </trkpt>
      <trkpt lat="43.61623" lon="7.04346">
        <ele>141</ele>
        <time>2011-04-09T12:57:59Z</time>
      </trkpt>
      <trkpt lat="43.61628" lon="7.04336">
        <ele>141</ele>
        <time>2011-04-09T12:58:01Z</time>
      </trkpt>
      <trkpt lat="43.61633" lon="7.04312">
        <ele>136</ele>
        <time>2011-04-09T12:58:04Z</time>
      </trkpt>
      <trkpt lat="43.61629" lon="7.04176">
        <ele>138</ele>
        <time>2011-04-09T12:58:22Z</time>
      </trkpt>
      <trkpt lat="43.61607" lon="7.04137">
        <ele>139</ele>
        <time>2011-04-09T12:58:31Z</time>
      </trkpt>
      <trkpt lat="43.61598" lon="7.04135">
        <ele>139</ele>
        <time>2011-04-09T12:59:39Z</time>
      </trkpt>
      <trkpt lat="43.61591" lon="7.04134">
        <ele>139</ele>
        <time>2011-04-09T12:59:42Z</time>
      </trkpt>
      <trkpt lat="43.6157" lon="7.04152">
        <ele>140</ele>
        <time>2011-04-09T12:59:52Z</time>
      </trkpt>
      <trkpt lat="43.61555" lon="7.04173">
        <ele>141</ele>
        <time>2011-04-09T13:00:02Z</time>
      </trkpt>
      <trkpt lat="43.61512" lon="7.04176">
        <ele>142</ele>
        <time>2011-04-09T13:00:22Z</time>
      </trkpt>
      <trkpt lat="43.61457" lon="7.04253">
        <ele>143</ele>
        <time>2011-04-09T13:01:00Z</time>
      </trkpt>
      <trkpt lat="43.61431" lon="7.04283">
        <ele>142</ele>
        <time>2011-04-09T13:01:25Z</time>
      </trkpt>
      <trkpt lat="43.61425" lon="7.04282">
        <ele>143</ele>
        <time>2011-04-09T13:01:37Z</time>
      </trkpt>
      <trkpt lat="43.61422" lon="7.04276">
        <ele>143</ele>
        <time>2011-04-09T13:01:40Z</time>
      </trkpt>
      <trkpt lat="43.61422" lon="7.04267">
        <ele>143</ele>
        <time>2011-04-09T13:01:48Z</time>
      </trkpt>
      <trkpt lat="43.61423" lon="7.0426">
        <ele>143</ele>
        <time>2011-04-09T13:01:55Z</time>
      </trkpt>
      <trkpt lat="43.61422" lon="7.04255">
        <ele>143</ele>
        <time>2011-04-09T13:02:04Z</time>
      </trkpt>
      <trkpt lat="43.61422" lon="7.04267">
        <ele>143</ele>
        <time>2011-04-09T13:02:26Z</time>
      </trkpt>
      <trkpt lat="43.61416" lon="7.0428">
        <ele>144</ele>
        <time>2011-04-09T13:02:32Z</time>
      </trkpt>
      <trkpt lat="43.6141" lon="7.04284">
        <ele>144</ele>
        <time>2011-04-09T13:02:36Z</time>
      </trkpt>
      <trkpt lat="43.61402" lon="7.04284">
        <ele>144</ele>
        <time>2011-04-09T13:02:40Z</time>
      </trkpt>
      <trkpt lat="43.61386" lon="7.043">
        <ele>145</ele>
        <time>2011-04-09T13:02:54Z</time>
      </trkpt>
      <trkpt lat="43.61384" lon="7.04292">
        <ele>145</ele>
        <time>2011-04-09T13:03:29Z</time>
      </trkpt>
      <trkpt lat="43.61382" lon="7.04254">
        <ele>146</ele>
        <time>2011-04-09T13:04:04Z</time>
      </trkpt>
      <trkpt lat="43.6138" lon="7.04251">
        <ele>147</ele>
        <time>2011-04-09T13:04:10Z</time>
      </trkpt>
      <trkpt lat="43.61379" lon="7.04236">
        <ele>147</ele>
        <time>2011-04-09T13:04:19Z</time>
      </trkpt>
      <trkpt lat="43.61368" lon="7.04212">
        <ele>148</ele>
        <time>2011-04-09T13:04:34Z</time>
      </trkpt>
      <trkpt lat="43.61369" lon="7.04204">
        <ele>149</ele>
        <time>2011-04-09T13:04:40Z</time>
      </trkpt>
      <trkpt lat="43.61372" lon="7.04196">
        <ele>150</ele>
        <time>2011-04-09T13:05:21Z</time>
      </trkpt>
      <trkpt lat="43.61374" lon="7.0419">
        <ele>151</ele>
        <time>2011-04-09T13:05:46Z</time>
      </trkpt>
      <trkpt lat="43.6137" lon="7.04178">
        <ele>152</ele>
        <time>2011-04-09T13:05:53Z</time>
      </trkpt>
      <trkpt lat="43.61357" lon="7.04132">
        <ele>154</ele>
        <time>2011-04-09T13:06:07Z</time>
      </trkpt>
      <trkpt lat="43.61353" lon="7.04112">
        <ele>156</ele>
        <time>2011-04-09T13:06:11Z</time>
      </trkpt>
      <trkpt lat="43.61328" lon="7.04081">
        <ele>157</ele>
        <time>2011-04-09T13:06:21Z</time>
      </trkpt>
      <trkpt lat="43.61265" lon="7.04073">
        <ele>157</ele>
        <time>2011-04-09T13:06:40Z</time>
      </trkpt>
      <trkpt lat="43.61246" lon="7.04101">
        <ele>158</ele>
        <time>2011-04-09T13:06:53Z</time>
      </trkpt>
      <trkpt lat="43.61244" lon="7.04108">
        <ele>159</ele>
        <time>2011-04-09T13:06:56Z</time>
      </trkpt>
      <trkpt lat="43.61245" lon="7.04102">
        <ele>159</ele>
        <time>2011-04-09T13:07:38Z</time>
      </trkpt>
      <trkpt lat="43.61254" lon="7.04097">
        <ele>159</ele>
        <time>2011-04-09T13:07:43Z</time>
      </trkpt>
      <trkpt lat="43.61277" lon="7.04093">
        <ele>159</ele>
        <time>2011-04-09T13:07:55Z</time>
      </trkpt>
      <trkpt lat="43.61286" lon="7.04099">
        <ele>159</ele>
        <time>2011-04-09T13:07:59Z</time>
      </trkpt>
      <trkpt lat="43.61291" lon="7.04109">
        <ele>159</ele>
        <time>2011-04-09T13:08:04Z</time>
      </trkpt>
      <trkpt lat="43.61298" lon="7.04112">
        <ele>160</ele>
        <time>2011-04-09T13:08:10Z</time>
      </trkpt>
      <trkpt lat="43.61297" lon="7.04119">
        <ele>160</ele>
        <time>2011-04-09T13:08:14Z</time>
      </trkpt>
      <trkpt lat="43.61285" lon="7.04135">
        <ele>162</ele>
        <time>2011-04-09T13:08:28Z</time>
      </trkpt>
      <trkpt lat="43.61285" lon="7.04143">
        <ele>163</ele>
        <time>2011-04-09T13:08:32Z</time>
      </trkpt>
      <trkpt lat="43.61289" lon="7.04148">
        <ele>164</ele>
        <time>2011-04-09T13:08:36Z</time>
      </trkpt>
      <trkpt lat="43.61289" lon="7.04154">
        <ele>165</ele>
        <time>2011-04-09T13:08:42Z</time>
      </trkpt>
      <trkpt lat="43.61287" lon="7.0416">
        <ele>165</ele>
        <time>2011-04-09T13:08:45Z</time>
      </trkpt>
      <trkpt lat="43.61289" lon="7.04174">
        <ele>166</ele>
        <time>2011-04-09T13:08:52Z</time>
      </trkpt>
      <trkpt lat="43.61285" lon="7.04191">
        <ele>168</ele>
        <time>2011-04-09T13:09:00Z</time>
      </trkpt>
      <trkpt lat="43.61288" lon="7.04199">
        <ele>168</ele>
        <time>2011-04-09T13:09:06Z</time>
      </trkpt>
      <trkpt lat="43.61294" lon="7.04198">
        <ele>169</ele>
        <time>2011-04-09T13:09:10Z</time>
      </trkpt>
      <trkpt lat="43.61294" lon="7.04194">
        <ele>170</ele>
        <time>2011-04-09T13:09:19Z</time>
      </trkpt>
      <trkpt lat="43.61289" lon="7.04214">
        <ele>171</ele>
        <time>2011-04-09T13:09:27Z</time>
      </trkpt>
      <trkpt lat="43.61282" lon="7.04224">
        <ele>171</ele>
        <time>2011-04-09T13:09:32Z</time>
      </trkpt>
      <trkpt lat="43.61258" lon="7.04238">
        <ele>173</ele>
        <time>2011-04-09T13:09:42Z</time>
      </trkpt>
      <trkpt lat="43.61253" lon="7.04237">
        <ele>174</ele>
        <time>2011-04-09T13:09:46Z</time>
      </trkpt>
      <trkpt lat="43.61238" lon="7.04241">
        <ele>174</ele>
        <time>2011-04-09T13:09:51Z</time>
      </trkpt>
      <trkpt lat="43.61216" lon="7.04249">
        <ele>178</ele>
        <time>2011-04-09T13:09:57Z</time>
      </trkpt>
      <trkpt lat="43.61202" lon="7.04261">
        <ele>178</ele>
        <time>2011-04-09T13:10:02Z</time>
      </trkpt>
      <trkpt lat="43.61199" lon="7.04269">
        <ele>179</ele>
        <time>2011-04-09T13:10:05Z</time>
      </trkpt>
      <trkpt lat="43.61195" lon="7.04307">
        <ele>180</ele>
        <time>2011-04-09T13:10:19Z</time>
      </trkpt>
      <trkpt lat="43.61171" lon="7.0437">
        <ele>182</ele>
        <time>2011-04-09T13:10:48Z</time>
      </trkpt>
      <trkpt lat="43.61165" lon="7.04359">
        <ele>182</ele>
        <time>2011-04-09T13:10:57Z</time>
      </trkpt>
      <trkpt lat="43.61162" lon="7.04351">
        <ele>182</ele>
        <time>2011-04-09T13:11:00Z</time>
      </trkpt>
      <trkpt lat="43.61157" lon="7.04349">
        <ele>182</ele>
        <time>2011-04-09T13:11:02Z</time>
      </trkpt>
      <trkpt lat="43.61122" lon="7.04356">
        <ele>182</ele>
        <time>2011-04-09T13:11:12Z</time>
      </trkpt>
      <trkpt lat="43.61056" lon="7.04319">
        <ele>186</ele>
        <time>2011-04-09T13:11:30Z</time>
      </trkpt>
      <trkpt lat="43.61049" lon="7.04308">
        <ele>186</ele>
        <time>2011-04-09T13:11:33Z</time>
      </trkpt>
      <trkpt lat="43.61037" lon="7.04276">
        <ele>186</ele>
        <time>2011-04-09T13:11:45Z</time>
      </trkpt>
      <trkpt lat="43.61033" lon="7.04274">
        <ele>186</ele>
        <time>2011-04-09T13:11:51Z</time>
      </trkpt>
      <trkpt lat="43.61025" lon="7.04263">
        <ele>186</ele>
        <time>2011-04-09T13:11:56Z</time>
      </trkpt>
      <trkpt lat="43.61" lon="7.04212">
        <ele>186</ele>
        <time>2011-04-09T13:12:26Z</time>
      </trkpt>
      <trkpt lat="43.60985" lon="7.04201">
        <ele>186</ele>
        <time>2011-04-09T13:12:36Z</time>
      </trkpt>
      <trkpt lat="43.60936" lon="7.04193">
        <ele>189</ele>
        <time>2011-04-09T13:13:08Z</time>
      </trkpt>
      <trkpt lat="43.60867" lon="7.0418">
        <ele>191</ele>
        <time>2011-04-09T13:13:41Z</time>
      </trkpt>
      <trkpt lat="43.60796" lon="7.0419">
        <ele>195</ele>
        <time>2011-04-09T13:14:17Z</time>
      </trkpt>
      <trkpt lat="43.60778" lon="7.04187">
        <ele>197</ele>
        <time>2011-04-09T13:14:29Z</time>
      </trkpt>
      <trkpt lat="43.60769" lon="7.04191">
        <ele>197</ele>
        <time>2011-04-09T13:14:34Z</time>
      </trkpt>
      <trkpt lat="43.60709" lon="7.04178">
        <ele>199</ele>
        <time>2011-04-09T13:14:56Z</time>
      </trkpt>
      <trkpt lat="43.60704" lon="7.0417">
        <ele>199</ele>
        <time>2011-04-09T13:14:58Z</time>
      </trkpt>
      <trkpt lat="43.60684" lon="7.04163">
        <ele>200</ele>
        <time>2011-04-09T13:15:06Z</time>
      </trkpt>
      <trkpt lat="43.60681" lon="7.04156">
        <ele>201</ele>
        <time>2011-04-09T13:15:08Z</time>
      </trkpt>
      <trkpt lat="43.60672" lon="7.04156">
        <ele>201</ele>
        <time>2011-04-09T13:15:13Z</time>
      </trkpt>
      <trkpt lat="43.60663" lon="7.04154">
        <ele>202</ele>
        <time>2011-04-09T13:15:17Z</time>
      </trkpt>
      <trkpt lat="43.60602" lon="7.04087">
        <ele>201</ele>
        <time>2011-04-09T13:15:40Z</time>
      </trkpt>
      <trkpt lat="43.60599" lon="7.04071">
        <ele>201</ele>
        <time>2011-04-09T13:15:44Z</time>
      </trkpt>
      <trkpt lat="43.60602" lon="7.04048">
        <ele>200</ele>
        <time>2011-04-09T13:15:50Z</time>
      </trkpt>
      <trkpt lat="43.60595" lon="7.04038">
        <ele>200</ele>
        <time>2011-04-09T13:15:56Z</time>
      </trkpt>
      <trkpt lat="43.60532" lon="7.03958">
        <ele>199</ele>
        <time>2011-04-09T13:16:27Z</time>
      </trkpt>
      <trkpt lat="43.6051" lon="7.0395">
        <ele>199</ele>
        <time>2011-04-09T13:16:33Z</time>
      </trkpt>
      <trkpt lat="43.60498" lon="7.03951">
        <ele>201</ele>
        <time>2011-04-09T13:16:36Z</time>
      </trkpt>
      <trkpt lat="43.60465" lon="7.03951">
        <ele>201</ele>
        <time>2011-04-09T13:16:45Z</time>
      </trkpt>
      <trkpt lat="43.60461" lon="7.03938">
        <ele>201</ele>
        <time>2011-04-09T13:16:51Z</time>
      </trkpt>
      <trkpt lat="43.60465" lon="7.03932">
        <ele>201</ele>
        <time>2011-04-09T13:16:54Z</time>
      </trkpt>
      <trkpt lat="43.60529" lon="7.03896">
        <ele>198</ele>
        <time>2011-04-09T13:17:17Z</time>
      </trkpt>
      <trkpt lat="43.60537" lon="7.03895">
        <ele>199</ele>
        <time>2011-04-09T13:17:22Z</time>
      </trkpt>
      <trkpt lat="43.6054" lon="7.03896">
        <ele>199</ele>
        <time>2011-04-09T13:17:33Z</time>
      </trkpt>
      <trkpt lat="43.60538" lon="7.03903">
        <ele>199</ele>
        <time>2011-04-09T13:18:06Z</time>
      </trkpt>
      <trkpt lat="43.60537" lon="7.03903">
        <ele>199</ele>
        <time>2011-04-09T13:18:35Z</time>
      </trkpt>
      <trkpt lat="43.60537" lon="7.03896">
        <ele>199</ele>
        <time>2011-04-09T13:19:02Z</time>
      </trkpt>
      <trkpt lat="43.60541" lon="7.03894">
        <ele>200</ele>
        <time>2011-04-09T13:19:24Z</time>
      </trkpt>
      <trkpt lat="43.60541" lon="7.03904">
        <ele>200</ele>
        <time>2011-04-09T13:20:06Z</time>
      </trkpt>
      <trkpt lat="43.60546" lon="7.03902">
        <ele>200</ele>
        <time>2011-04-09T13:20:32Z</time>
      </trkpt>
      <trkpt lat="43.60539" lon="7.03894">
        <ele>200</ele>
        <time>2011-04-09T13:20:54Z</time>
      </trkpt>
      <trkpt lat="43.60538" lon="7.03892">
        <ele>200</ele>
        <time>2011-04-09T13:22:26Z</time>
      </trkpt>
      <trkpt lat="43.60535" lon="7.03886">
        <ele>200</ele>
        <time>2011-04-09T13:22:27Z</time>
      </trkpt>
      <trkpt lat="43.6053" lon="7.03894">
        <ele>201</ele>
        <time>2011-04-09T13:23:08Z</time>
      </trkpt>
      <trkpt lat="43.60525" lon="7.03892">
        <ele>201</ele>
        <time>2011-04-09T13:23:10Z</time>
      </trkpt>
      <trkpt lat="43.60515" lon="7.03893">
        <ele>201</ele>
        <time>2011-04-09T13:23:13Z</time>
      </trkpt>
      <trkpt lat="43.60507" lon="7.03897">
        <ele>201</ele>
        <time>2011-04-09T13:23:15Z</time>
      </trkpt>
      <trkpt lat="43.60444" lon="7.03922">
        <ele>202</ele>
        <time>2011-04-09T13:23:29Z</time>
      </trkpt>
      <trkpt lat="43.60425" lon="7.03893">
        <ele>203</ele>
        <time>2011-04-09T13:23:35Z</time>
      </trkpt>
      <trkpt lat="43.6042" lon="7.03861">
        <ele>203</ele>
        <time>2011-04-09T13:23:40Z</time>
      </trkpt>
      <trkpt lat="43.60413" lon="7.03848">
        <ele>203</ele>
        <time>2011-04-09T13:23:42Z</time>
      </trkpt>
      <trkpt lat="43.60355" lon="7.03827">
        <ele>202</ele>
        <time>2011-04-09T13:23:55Z</time>
      </trkpt>
      <trkpt lat="43.60348" lon="7.03829">
        <ele>202</ele>
        <time>2011-04-09T13:23:57Z</time>
      </trkpt>
      <trkpt lat="43.6031" lon="7.03882">
        <ele>203</ele>
        <time>2011-04-09T13:24:11Z</time>
      </trkpt>
      <trkpt lat="43.60308" lon="7.03889">
        <ele>203</ele>
        <time>2011-04-09T13:24:13Z</time>
      </trkpt>
      <trkpt lat="43.60308" lon="7.03898">
        <ele>203</ele>
        <time>2011-04-09T13:24:15Z</time>
      </trkpt>
      <trkpt lat="43.60321" lon="7.04001">
        <ele>201</ele>
        <time>2011-04-09T13:24:57Z</time>
      </trkpt>
      <trkpt lat="43.60319" lon="7.04029">
        <ele>200</ele>
        <time>2011-04-09T13:25:04Z</time>
      </trkpt>
      <trkpt lat="43.60356" lon="7.04114">
        <ele>199</ele>
        <time>2011-04-09T13:25:26Z</time>
      </trkpt>
      <trkpt lat="43.60405" lon="7.0416">
        <ele>198</ele>
        <time>2011-04-09T13:26:01Z</time>
      </trkpt>
      <trkpt lat="43.60467" lon="7.04233">
        <ele>198</ele>
        <time>2011-04-09T13:26:31Z</time>
      </trkpt>
      <trkpt lat="43.60491" lon="7.0433">
        <ele>198</ele>
        <time>2011-04-09T13:27:07Z</time>
      </trkpt>
      <trkpt lat="43.60517" lon="7.04394">
        <ele>199</ele>
        <time>2011-04-09T13:27:28Z</time>
      </trkpt>
      <trkpt lat="43.60522" lon="7.04408">
        <ele>199</ele>
        <time>2011-04-09T13:27:33Z</time>
      </trkpt>
      <trkpt lat="43.60523" lon="7.04425">
        <ele>198</ele>
        <time>2011-04-09T13:27:37Z</time>
      </trkpt>
      <trkpt lat="43.60523" lon="7.0444">
        <ele>198</ele>
        <time>2011-04-09T13:27:41Z</time>
      </trkpt>
      <trkpt lat="43.60564" lon="7.04526">
        <ele>197</ele>
        <time>2011-04-09T13:28:16Z</time>
      </trkpt>
      <trkpt lat="43.60578" lon="7.04557">
        <ele>194</ele>
        <time>2011-04-09T13:28:33Z</time>
      </trkpt>
      <trkpt lat="43.60589" lon="7.04587">
        <ele>187</ele>
        <time>2011-04-09T13:28:39Z</time>
      </trkpt>
      <trkpt lat="43.60592" lon="7.04603">
        <ele>186</ele>
        <time>2011-04-09T13:28:42Z</time>
      </trkpt>
      <trkpt lat="43.60597" lon="7.0463">
        <ele>186</ele>
        <time>2011-04-09T13:28:49Z</time>
      </trkpt>
      <trkpt lat="43.60598" lon="7.04647">
        <ele>187</ele>
        <time>2011-04-09T13:28:52Z</time>
      </trkpt>
      <trkpt lat="43.60579" lon="7.04707">
        <ele>192</ele>
        <time>2011-04-09T13:29:01Z</time>
      </trkpt>
      <trkpt lat="43.60561" lon="7.04766">
        <ele>191</ele>
        <time>2011-04-09T13:29:13Z</time>
      </trkpt>
      <trkpt lat="43.60507" lon="7.04879">
        <ele>182</ele>
        <time>2011-04-09T13:29:34Z</time>
      </trkpt>
      <trkpt lat="43.605" lon="7.04894">
        <ele>182</ele>
        <time>2011-04-09T13:29:37Z</time>
      </trkpt>
      <trkpt lat="43.60476" lon="7.04948">
        <ele>179</ele>
        <time>2011-04-09T13:29:53Z</time>
      </trkpt>
      <trkpt lat="43.60482" lon="7.04958">
        <ele>177</ele>
        <time>2011-04-09T13:30:37Z</time>
      </trkpt>
      <trkpt lat="43.60487" lon="7.04963">
        <ele>176</ele>
        <time>2011-04-09T13:30:39Z</time>
      </trkpt>
      <trkpt lat="43.60503" lon="7.04965">
        <ele>174</ele>
        <time>2011-04-09T13:30:47Z</time>
      </trkpt>
      <trkpt lat="43.60509" lon="7.04959">
        <ele>174</ele>
        <time>2011-04-09T13:30:50Z</time>
      </trkpt>
      <trkpt lat="43.60517" lon="7.04947">
        <ele>173</ele>
        <time>2011-04-09T13:30:54Z</time>
      </trkpt>
      <trkpt lat="43.60527" lon="7.04943">
        <ele>173</ele>
        <time>2011-04-09T13:30:57Z</time>
      </trkpt>
      <trkpt lat="43.60545" lon="7.04935">
        <ele>169</ele>
        <time>2011-04-09T13:31:01Z</time>
      </trkpt>
      <trkpt lat="43.60553" lon="7.04927">
        <ele>169</ele>
        <time>2011-04-09T13:31:03Z</time>
      </trkpt>
      <trkpt lat="43.60579" lon="7.04884">
        <ele>171</ele>
        <time>2011-04-09T13:31:11Z</time>
      </trkpt>
      <trkpt lat="43.60609" lon="7.0486">
        <ele>168</ele>
        <time>2011-04-09T13:31:18Z</time>
      </trkpt>
      <trkpt lat="43.60632" lon="7.0483">
        <ele>168</ele>
        <time>2011-04-09T13:31:27Z</time>
      </trkpt>
      <trkpt lat="43.60744" lon="7.0471">
        <ele>164</ele>
        <time>2011-04-09T13:31:56Z</time>
      </trkpt>
      <trkpt lat="43.60753" lon="7.04674">
        <ele>159</ele>
        <time>2011-04-09T13:32:02Z</time>
      </trkpt>
      <trkpt lat="43.60762" lon="7.04603">
        <ele>157</ele>
        <time>2011-04-09T13:32:15Z</time>
      </trkpt>
      <trkpt lat="43.60774" lon="7.04586">
        <ele>158</ele>
        <time>2011-04-09T13:32:20Z</time>
      </trkpt>
      <trkpt lat="43.60819" lon="7.04567">
        <ele>158</ele>
        <time>2011-04-09T13:32:36Z</time>
      </trkpt>
      <trkpt lat="43.60826" lon="7.04571">
        <ele>158</ele>
        <time>2011-04-09T13:32:39Z</time>
      </trkpt>
      <trkpt lat="43.6083" lon="7.04577">
        <ele>158</ele>
        <time>2011-04-09T13:32:42Z</time>
      </trkpt>
      <trkpt lat="43.60833" lon="7.04599">
        <ele>159</ele>
        <time>2011-04-09T13:32:51Z</time>
      </trkpt>
      <trkpt lat="43.6084" lon="7.04664">
        <ele>160</ele>
        <time>2011-04-09T13:33:06Z</time>
      </trkpt>
      <trkpt lat="43.60846" lon="7.04674">
        <ele>160</ele>
        <time>2011-04-09T13:33:09Z</time>
      </trkpt>
      <trkpt lat="43.60873" lon="7.0469">
        <ele>161</ele>
        <time>2011-04-09T13:33:18Z</time>
      </trkpt>
      <trkpt lat="43.60878" lon="7.047">
        <ele>162</ele>
        <time>2011-04-09T13:34:04Z</time>
      </trkpt>
      <trkpt lat="43.60881" lon="7.04685">
        <ele>162</ele>
        <time>2011-04-09T13:34:11Z</time>
      </trkpt>
      <trkpt lat="43.60888" lon="7.04645">
        <ele>163</ele>
        <time>2011-04-09T13:34:29Z</time>
      </trkpt>
      <trkpt lat="43.60891" lon="7.0464">
        <ele>164</ele>
        <time>2011-04-09T13:34:35Z</time>
      </trkpt>
      <trkpt lat="43.60912" lon="7.04589">
        <ele>168</ele>
        <time>2011-04-09T13:35:07Z</time>
      </trkpt>
      <trkpt lat="43.60929" lon="7.0454">
        <ele>170</ele>
        <time>2011-04-09T13:35:38Z</time>
      </trkpt>
      <trkpt lat="43.60934" lon="7.04528">
        <ele>171</ele>
        <time>2011-04-09T13:35:45Z</time>
      </trkpt>
      <trkpt lat="43.6093" lon="7.04532">
        <ele>171</ele>
        <time>2011-04-09T13:35:52Z</time>
      </trkpt>
      <trkpt lat="43.6093" lon="7.04534">
        <ele>173</ele>
        <time>2011-04-09T13:36:04Z</time>
      </trkpt>
      <trkpt lat="43.60953" lon="7.04474">
        <ele>174</ele>
        <time>2011-04-09T13:36:26Z</time>
      </trkpt>
      <trkpt lat="43.60929" lon="7.04378">
        <ele>178</ele>
        <time>2011-04-09T13:36:57Z</time>
      </trkpt>
      <trkpt lat="43.60937" lon="7.04287">
        <ele>180</ele>
        <time>2011-04-09T13:37:29Z</time>
      </trkpt>
      <trkpt lat="43.60936" lon="7.04258">
        <ele>181</ele>
        <time>2011-04-09T13:37:41Z</time>
      </trkpt>
      <trkpt lat="43.60939" lon="7.04184">
        <ele>187</ele>
        <time>2011-04-09T13:38:18Z</time>
      </trkpt>
      <trkpt lat="43.60932" lon="7.04175">
        <ele>188</ele>
        <time>2011-04-09T13:38:28Z</time>
      </trkpt>
      <trkpt lat="43.60927" lon="7.04178">
        <ele>189</ele>
        <time>2011-04-09T13:38:33Z</time>
      </trkpt>
      <trkpt lat="43.60922" lon="7.0418">
        <ele>189</ele>
        <time>2011-04-09T13:38:38Z</time>
      </trkpt>
      <trkpt lat="43.60889" lon="7.04176">
        <ele>191</ele>
        <time>2011-04-09T13:38:54Z</time>
      </trkpt>
      <trkpt lat="43.60878" lon="7.04164">
        <ele>191</ele>
        <time>2011-04-09T13:39:03Z</time>
      </trkpt>
      <trkpt lat="43.60849" lon="7.04169">
        <ele>192</ele>
        <time>2011-04-09T13:39:15Z</time>
      </trkpt>
      <trkpt lat="43.60758" lon="7.04185">
        <ele>195</ele>
        <time>2011-04-09T13:39:47Z</time>
      </trkpt>
      <trkpt lat="43.60681" lon="7.04144">
        <ele>199</ele>
        <time>2011-04-09T13:40:05Z</time>
      </trkpt>
      <trkpt lat="43.60657" lon="7.04116">
        <ele>195</ele>
        <time>2011-04-09T13:40:11Z</time>
      </trkpt>
      <trkpt lat="43.60656" lon="7.041">
        <ele>194</ele>
        <time>2011-04-09T13:40:15Z</time>
      </trkpt>
      <trkpt lat="43.60638" lon="7.04054">
        <ele>194</ele>
        <time>2011-04-09T13:40:35Z</time>
      </trkpt>
      <trkpt lat="43.60639" lon="7.04046">
        <ele>194</ele>
        <time>2011-04-09T13:40:38Z</time>
      </trkpt>
      <trkpt lat="43.60634" lon="7.04051">
        <ele>193</ele>
        <time>2011-04-09T13:40:49Z</time>
      </trkpt>
      <trkpt lat="43.6063" lon="7.04057">
        <ele>193</ele>
        <time>2011-04-09T13:40:52Z</time>
      </trkpt>
      <trkpt lat="43.60628" lon="7.04065">
        <ele>192</ele>
        <time>2011-04-09T13:40:55Z</time>
      </trkpt>
      <trkpt lat="43.60633" lon="7.04067">
        <ele>191</ele>
        <time>2011-04-09T13:41:03Z</time>
      </trkpt>
      <trkpt lat="43.60635" lon="7.04059">
        <ele>191</ele>
        <time>2011-04-09T13:41:07Z</time>
      </trkpt>
      <trkpt lat="43.6067" lon="7.03982">
        <ele>189</ele>
        <time>2011-04-09T13:41:38Z</time>
      </trkpt>
      <trkpt lat="43.60671" lon="7.03974">
        <ele>189</ele>
        <time>2011-04-09T13:41:40Z</time>
      </trkpt>
      <trkpt lat="43.60675" lon="7.03926">
        <ele>188</ele>
        <time>2011-04-09T13:41:51Z</time>
      </trkpt>
      <trkpt lat="43.60694" lon="7.03891">
        <ele>189</ele>
        <time>2011-04-09T13:42:03Z</time>
      </trkpt>
      <trkpt lat="43.6069" lon="7.03879">
        <ele>189</ele>
        <time>2011-04-09T13:42:12Z</time>
      </trkpt>
      <trkpt lat="43.60685" lon="7.03879">
        <ele>189</ele>
        <time>2011-04-09T13:42:14Z</time>
      </trkpt>
      <trkpt lat="43.60641" lon="7.03868">
        <ele>191</ele>
        <time>2011-04-09T13:42:42Z</time>
      </trkpt>
      <trkpt lat="43.60633" lon="7.03855">
        <ele>192</ele>
        <time>2011-04-09T13:42:49Z</time>
      </trkpt>
      <trkpt lat="43.606" lon="7.03846">
        <ele>194</ele>
        <time>2011-04-09T13:43:07Z</time>
      </trkpt>
      <trkpt lat="43.60579" lon="7.03814">
        <ele>197</ele>
        <time>2011-04-09T13:43:26Z</time>
      </trkpt>
      <trkpt lat="43.60575" lon="7.03801">
        <ele>199</ele>
        <time>2011-04-09T13:43:31Z</time>
      </trkpt>
      <trkpt lat="43.60569" lon="7.03799">
        <ele>200</ele>
        <time>2011-04-09T13:43:36Z</time>
      </trkpt>
      <trkpt lat="43.60561" lon="7.03801">
        <ele>201</ele>
        <time>2011-04-09T13:43:47Z</time>
      </trkpt>
      <trkpt lat="43.60553" lon="7.0381">
        <ele>202</ele>
        <time>2011-04-09T13:43:52Z</time>
      </trkpt>
      <trkpt lat="43.60556" lon="7.03817">
        <ele>202</ele>
        <time>2011-04-09T13:43:55Z</time>
      </trkpt>
      <trkpt lat="43.60584" lon="7.03831">
        <ele>203</ele>
        <time>2011-04-09T13:44:07Z</time>
      </trkpt>
      <trkpt lat="43.60595" lon="7.03837">
        <ele>204</ele>
        <time>2011-04-09T13:44:10Z</time>
      </trkpt>
      <trkpt lat="43.60611" lon="7.03846">
        <ele>204</ele>
        <time>2011-04-09T13:44:41Z</time>
      </trkpt>
      <trkpt lat="43.60606" lon="7.03848">
        <ele>204</ele>
        <time>2011-04-09T13:45:02Z</time>
      </trkpt>
      <trkpt lat="43.60604" lon="7.03842">
        <ele>204</ele>
        <time>2011-04-09T13:45:25Z</time>
      </trkpt>
      <trkpt lat="43.60595" lon="7.03841">
        <ele>204</ele>
        <time>2011-04-09T13:45:29Z</time>
      </trkpt>
      <trkpt lat="43.60591" lon="7.03838">
        <ele>203</ele>
        <time>2011-04-09T13:45:34Z</time>
      </trkpt>
      <trkpt lat="43.60582" lon="7.03821">
        <ele>203</ele>
        <time>2011-04-09T13:45:48Z</time>
      </trkpt>
      <trkpt lat="43.60571" lon="7.03809">
        <ele>203</ele>
        <time>2011-04-09T13:45:59Z</time>
      </trkpt>
      <trkpt lat="43.6057" lon="7.03802">
        <ele>203</ele>
        <time>2011-04-09T13:46:03Z</time>
      </trkpt>
      <trkpt lat="43.60554" lon="7.03781">
        <ele>203</ele>
        <time>2011-04-09T13:46:14Z</time>
      </trkpt>
      <trkpt lat="43.60552" lon="7.03761">
        <ele>203</ele>
        <time>2011-04-09T13:46:18Z</time>
      </trkpt>
      <trkpt lat="43.60546" lon="7.03751">
        <ele>203</ele>
        <time>2011-04-09T13:46:23Z</time>
      </trkpt>
      <trkpt lat="43.60509" lon="7.03713">
        <ele>205</ele>
        <time>2011-04-09T13:46:54Z</time>
      </trkpt>
      <trkpt lat="43.60479" lon="7.03708">
        <ele>204</ele>
        <time>2011-04-09T13:47:16Z</time>
      </trkpt>
      <trkpt lat="43.60472" lon="7.03697">
        <ele>204</ele>
        <time>2011-04-09T13:47:22Z</time>
      </trkpt>
      <trkpt lat="43.60461" lon="7.03631">
        <ele>206</ele>
        <time>2011-04-09T13:47:52Z</time>
      </trkpt>
      <trkpt lat="43.60465" lon="7.03503">
        <ele>213</ele>
        <time>2011-04-09T13:48:22Z</time>
      </trkpt>
      <trkpt lat="43.60466" lon="7.03388">
        <ele>216</ele>
        <time>2011-04-09T13:48:55Z</time>
      </trkpt>
      <trkpt lat="43.60464" lon="7.03382">
        <ele>218</ele>
        <time>2011-04-09T13:51:27Z</time>
      </trkpt>
      <trkpt lat="43.60436" lon="7.03356">
        <ele>219</ele>
        <time>2011-04-09T13:51:46Z</time>
      </trkpt>
      <trkpt lat="43.6039" lon="7.03353">
        <ele>221</ele>
        <time>2011-04-09T13:52:08Z</time>
      </trkpt>
      <trkpt lat="43.60385" lon="7.03348">
        <ele>222</ele>
        <time>2011-04-09T13:52:35Z</time>
      </trkpt>
      <trkpt lat="43.60385" lon="7.03341">
        <ele>223</ele>
        <time>2011-04-09T13:52:55Z</time>
      </trkpt>
      <trkpt lat="43.60381" lon="7.03339">
        <ele>224</ele>
        <time>2011-04-09T13:54:28Z</time>
      </trkpt>
      <trkpt lat="43.60377" lon="7.03335">
        <ele>224</ele>
        <time>2011-04-09T13:54:34Z</time>
      </trkpt>
      <trkpt lat="43.60376" lon="7.03324">
        <ele>226</ele>
        <time>2011-04-09T13:55:15Z</time>
      </trkpt>
      <trkpt lat="43.60373" lon="7.03296">
        <ele>232</ele>
        <time>2011-04-09T13:55:20Z</time>
      </trkpt>
      <trkpt lat="43.60357" lon="7.03276">
        <ele>234</ele>
        <time>2011-04-09T13:55:25Z</time>
      </trkpt>
      <trkpt lat="43.60349" lon="7.03267">
        <ele>235</ele>
        <time>2011-04-09T13:55:29Z</time>
      </trkpt>
      <trkpt lat="43.60348" lon="7.03258">
        <ele>235</ele>
        <time>2011-04-09T13:55:31Z</time>
      </trkpt>
      <trkpt lat="43.60353" lon="7.03227">
        <ele>237</ele>
        <time>2011-04-09T13:55:37Z</time>
      </trkpt>
      <trkpt lat="43.6035" lon="7.03211">
        <ele>239</ele>
        <time>2011-04-09T13:55:40Z</time>
      </trkpt>
      <trkpt lat="43.60344" lon="7.032">
        <ele>240</ele>
        <time>2011-04-09T13:55:42Z</time>
      </trkpt>
      <trkpt lat="43.60295" lon="7.03134">
        <ele>238</ele>
        <time>2011-04-09T13:55:57Z</time>
      </trkpt>
      <trkpt lat="43.60288" lon="7.03118">
        <ele>239</ele>
        <time>2011-04-09T13:56:00Z</time>
      </trkpt>
      <trkpt lat="43.60284" lon="7.03099">
        <ele>240</ele>
        <time>2011-04-09T13:56:03Z</time>
      </trkpt>
      <trkpt lat="43.6028" lon="7.03081">
        <ele>241</ele>
        <time>2011-04-09T13:56:06Z</time>
      </trkpt>
      <trkpt lat="43.60276" lon="7.03063">
        <ele>242</ele>
        <time>2011-04-09T13:56:09Z</time>
      </trkpt>
      <trkpt lat="43.60268" lon="7.03051">
        <ele>242</ele>
        <time>2011-04-09T13:56:12Z</time>
      </trkpt>
      <trkpt lat="43.60255" lon="7.03047">
        <ele>242</ele>
        <time>2011-04-09T13:56:15Z</time>
      </trkpt>
      <trkpt lat="43.60245" lon="7.0304">
        <ele>241</ele>
        <time>2011-04-09T13:56:18Z</time>
      </trkpt>
      <trkpt lat="43.60233" lon="7.03042">
        <ele>240</ele>
        <time>2011-04-09T13:56:21Z</time>
      </trkpt>
      <trkpt lat="43.60225" lon="7.03053">
        <ele>238</ele>
        <time>2011-04-09T13:56:25Z</time>
      </trkpt>
      <trkpt lat="43.60223" lon="7.03085">
        <ele>233</ele>
        <time>2011-04-09T13:56:32Z</time>
      </trkpt>
      <trkpt lat="43.60212" lon="7.03109">
        <ele>232</ele>
        <time>2011-04-09T13:56:39Z</time>
      </trkpt>
      <trkpt lat="43.60203" lon="7.03109">
        <ele>231</ele>
        <time>2011-04-09T13:56:45Z</time>
      </trkpt>
      <trkpt lat="43.60198" lon="7.03109">
        <ele>230</ele>
        <time>2011-04-09T13:56:49Z</time>
      </trkpt>
      <trkpt lat="43.60198" lon="7.03094">
        <ele>228</ele>
        <time>2011-04-09T13:57:21Z</time>
      </trkpt>
      <trkpt lat="43.60175" lon="7.03018">
        <ele>214</ele>
        <time>2011-04-09T13:57:34Z</time>
      </trkpt>
      <trkpt lat="43.60184" lon="7.02997">
        <ele>214</ele>
        <time>2011-04-09T13:57:40Z</time>
      </trkpt>
      <trkpt lat="43.60212" lon="7.02958">
        <ele>213</ele>
        <time>2011-04-09T13:57:53Z</time>
      </trkpt>
      <trkpt lat="43.60306" lon="7.02943">
        <ele>213</ele>
        <time>2011-04-09T13:58:24Z</time>
      </trkpt>
      <trkpt lat="43.60348" lon="7.02949">
        <ele>212</ele>
        <time>2011-04-09T13:58:36Z</time>
      </trkpt>
      <trkpt lat="43.60371" lon="7.02981">
        <ele>212</ele>
        <time>2011-04-09T13:58:53Z</time>
      </trkpt>
      <trkpt lat="43.60401" lon="7.03047">
        <ele>209</ele>
        <time>2011-04-09T13:59:07Z</time>
      </trkpt>
      <trkpt lat="43.60432" lon="7.03058">
        <ele>204</ele>
        <time>2011-04-09T13:59:12Z</time>
      </trkpt>
      <trkpt lat="43.60512" lon="7.03036">
        <ele>203</ele>
        <time>2011-04-09T13:59:55Z</time>
      </trkpt>
      <trkpt lat="43.60615" lon="7.03121">
        <ele>204</ele>
        <time>2011-04-09T14:00:25Z</time>
      </trkpt>
      <trkpt lat="43.6064" lon="7.03146">
        <ele>200</ele>
        <time>2011-04-09T14:00:33Z</time>
      </trkpt>
      <trkpt lat="43.60658" lon="7.03189">
        <ele>199</ele>
        <time>2011-04-09T14:00:48Z</time>
      </trkpt>
      <trkpt lat="43.6071" lon="7.03247">
        <ele>186</ele>
        <time>2011-04-09T14:00:59Z</time>
      </trkpt>
      <trkpt lat="43.60721" lon="7.03266">
        <ele>186</ele>
        <time>2011-04-09T14:01:02Z</time>
      </trkpt>
      <trkpt lat="43.60723" lon="7.03277">
        <ele>186</ele>
        <time>2011-04-09T14:01:04Z</time>
      </trkpt>
      <trkpt lat="43.60718" lon="7.03291">
        <ele>186</ele>
        <time>2011-04-09T14:01:09Z</time>
      </trkpt>
      <trkpt lat="43.60719" lon="7.03304">
        <ele>186</ele>
        <time>2011-04-09T14:01:15Z</time>
      </trkpt>
      <trkpt lat="43.6073" lon="7.03311">
        <ele>186</ele>
        <time>2011-04-09T14:01:20Z</time>
      </trkpt>
      <trkpt lat="43.60763" lon="7.03347">
        <ele>187</ele>
        <time>2011-04-09T14:01:30Z</time>
      </trkpt>
      <trkpt lat="43.60766" lon="7.03359">
        <ele>186</ele>
        <time>2011-04-09T14:01:32Z</time>
      </trkpt>
      <trkpt lat="43.60764" lon="7.0337">
        <ele>186</ele>
        <time>2011-04-09T14:01:34Z</time>
      </trkpt>
      <trkpt lat="43.60707" lon="7.0348">
        <ele>184</ele>
        <time>2011-04-09T14:02:02Z</time>
      </trkpt>
      <trkpt lat="43.60713" lon="7.03492">
        <ele>183</ele>
        <time>2011-04-09T14:02:06Z</time>
      </trkpt>
      <trkpt lat="43.60752" lon="7.03534">
        <ele>183</ele>
        <time>2011-04-09T14:02:31Z</time>
      </trkpt>
      <trkpt lat="43.60759" lon="7.03545">
        <ele>182</ele>
        <time>2011-04-09T14:03:20Z</time>
      </trkpt>
      <trkpt lat="43.60769" lon="7.03551">
        <ele>181</ele>
        <time>2011-04-09T14:03:23Z</time>
      </trkpt>
      <trkpt lat="43.60776" lon="7.0355">
        <ele>179</ele>
        <time>2011-04-09T14:03:25Z</time>
      </trkpt>
      <trkpt lat="43.6082" lon="7.03497">
        <ele>176</ele>
        <time>2011-04-09T14:03:37Z</time>
      </trkpt>
      <trkpt lat="43.60825" lon="7.03482">
        <ele>176</ele>
        <time>2011-04-09T14:03:40Z</time>
      </trkpt>
      <trkpt lat="43.60818" lon="7.03472">
        <ele>176</ele>
        <time>2011-04-09T14:03:45Z</time>
      </trkpt>
      <trkpt lat="43.60797" lon="7.03467">
        <ele>176</ele>
        <time>2011-04-09T14:03:52Z</time>
      </trkpt>
      <trkpt lat="43.608" lon="7.03457">
        <ele>175</ele>
        <time>2011-04-09T14:03:58Z</time>
      </trkpt>
      <trkpt lat="43.60809" lon="7.03452">
        <ele>175</ele>
        <time>2011-04-09T14:04:01Z</time>
      </trkpt>
      <trkpt lat="43.60815" lon="7.03444">
        <ele>175</ele>
        <time>2011-04-09T14:04:03Z</time>
      </trkpt>
      <trkpt lat="43.6085" lon="7.03377">
        <ele>166</ele>
        <time>2011-04-09T14:04:16Z</time>
      </trkpt>
      <trkpt lat="43.60847" lon="7.03363">
        <ele>165</ele>
        <time>2011-04-09T14:04:19Z</time>
      </trkpt>
      <trkpt lat="43.60761" lon="7.03235">
        <ele>166</ele>
        <time>2011-04-09T14:04:42Z</time>
      </trkpt>
      <trkpt lat="43.60718" lon="7.03176">
        <ele>167</ele>
        <time>2011-04-09T14:04:57Z</time>
      </trkpt>
      <trkpt lat="43.60649" lon="7.03058">
        <ele>168</ele>
        <time>2011-04-09T14:05:29Z</time>
      </trkpt>
      <trkpt lat="43.60578" lon="7.02984">
        <ele>167</ele>
        <time>2011-04-09T14:06:00Z</time>
      </trkpt>
      <trkpt lat="43.60518" lon="7.02884">
        <ele>165</ele>
        <time>2011-04-09T14:06:33Z</time>
      </trkpt>
      <trkpt lat="43.60512" lon="7.02885">
        <ele>165</ele>
        <time>2011-04-09T14:06:41Z</time>
      </trkpt>
      <trkpt lat="43.60497" lon="7.02876">
        <ele>164</ele>
        <time>2011-04-09T14:06:50Z</time>
      </trkpt>
      <trkpt lat="43.60501" lon="7.0287">
        <ele>163</ele>
        <time>2011-04-09T14:06:58Z</time>
      </trkpt>
      <trkpt lat="43.60499" lon="7.02869">
        <ele>162</ele>
        <time>2011-04-09T14:07:09Z</time>
      </trkpt>
      <trkpt lat="43.60495" lon="7.02856">
        <ele>161</ele>
        <time>2011-04-09T14:07:15Z</time>
      </trkpt>
      <trkpt lat="43.60494" lon="7.02845">
        <ele>160</ele>
        <time>2011-04-09T14:07:27Z</time>
      </trkpt>
      <trkpt lat="43.60485" lon="7.02843">
        <ele>160</ele>
        <time>2011-04-09T14:07:39Z</time>
      </trkpt>
      <trkpt lat="43.60484" lon="7.02851">
        <ele>160</ele>
        <time>2011-04-09T14:07:44Z</time>
      </trkpt>
      <trkpt lat="43.60487" lon="7.02857">
        <ele>160</ele>
        <time>2011-04-09T14:07:46Z</time>
      </trkpt>
      <trkpt lat="43.60494" lon="7.0285">
        <ele>160</ele>
        <time>2011-04-09T14:07:53Z</time>
      </trkpt>
      <trkpt lat="43.60499" lon="7.02844">
        <ele>160</ele>
        <time>2011-04-09T14:07:58Z</time>
      </trkpt>
      <trkpt lat="43.60496" lon="7.02838">
        <ele>160</ele>
        <time>2011-04-09T14:08:15Z</time>
      </trkpt>
      <trkpt lat="43.60499" lon="7.02842">
        <ele>160</ele>
        <time>2011-04-09T14:09:37Z</time>
      </trkpt>
      <trkpt lat="43.60465" lon="7.02854">
        <ele>159</ele>
        <time>2011-04-09T14:09:59Z</time>
      </trkpt>
      <trkpt lat="43.60424" lon="7.02842">
        <ele>159</ele>
        <time>2011-04-09T14:10:18Z</time>
      </trkpt>
      <trkpt lat="43.60412" lon="7.02839">
        <ele>160</ele>
        <time>2011-04-09T14:10:21Z</time>
      </trkpt>
      <trkpt lat="43.60304" lon="7.02828">
        <ele>164</ele>
        <time>2011-04-09T14:10:52Z</time>
      </trkpt>
      <trkpt lat="43.6023" lon="7.02861">
        <ele>165</ele>
        <time>2011-04-09T14:11:22Z</time>
      </trkpt>
      <trkpt lat="43.60151" lon="7.0289">
        <ele>166</ele>
        <time>2011-04-09T14:11:45Z</time>
      </trkpt>
      <trkpt lat="43.60133" lon="7.02878">
        <ele>165</ele>
        <time>2011-04-09T14:12:09Z</time>
      </trkpt>
      <trkpt lat="43.60128" lon="7.02873">
        <ele>164</ele>
        <time>2011-04-09T14:12:22Z</time>
      </trkpt>
      <trkpt lat="43.60125" lon="7.0286">
        <ele>164</ele>
        <time>2011-04-09T14:12:28Z</time>
      </trkpt>
      <trkpt lat="43.60125" lon="7.02852">
        <ele>164</ele>
        <time>2011-04-09T14:12:31Z</time>
      </trkpt>
      <trkpt lat="43.60119" lon="7.02844">
        <ele>164</ele>
        <time>2011-04-09T14:12:39Z</time>
      </trkpt>
      <trkpt lat="43.60111" lon="7.02836">
        <ele>164</ele>
        <time>2011-04-09T14:12:42Z</time>
      </trkpt>
      <trkpt lat="43.60104" lon="7.02836">
        <ele>164</ele>
        <time>2011-04-09T14:12:44Z</time>
      </trkpt>
      <trkpt lat="43.60079" lon="7.02838">
        <ele>165</ele>
        <time>2011-04-09T14:12:54Z</time>
      </trkpt>
      <trkpt lat="43.60076" lon="7.02832">
        <ele>165</ele>
        <time>2011-04-09T14:12:58Z</time>
      </trkpt>
      <trkpt lat="43.6007" lon="7.02831">
        <ele>165</ele>
        <time>2011-04-09T14:13:02Z</time>
      </trkpt>
      <trkpt lat="43.60001" lon="7.02859">
        <ele>164</ele>
        <time>2011-04-09T14:13:32Z</time>
      </trkpt>
      <trkpt lat="43.59915" lon="7.02894">
        <ele>166</ele>
        <time>2011-04-09T14:14:04Z</time>
      </trkpt>
      <trkpt lat="43.59843" lon="7.02971">
        <ele>166</ele>
        <time>2011-04-09T14:14:42Z</time>
      </trkpt>
      <trkpt lat="43.59839" lon="7.02973">
        <ele>165</ele>
        <time>2011-04-09T14:17:51Z</time>
      </trkpt>
      <trkpt lat="43.59836" lon="7.02975">
        <ele>169</ele>
        <time>2011-04-09T14:22:57Z</time>
      </trkpt>
      <trkpt lat="43.59809" lon="7.02992">
        <ele>169</ele>
        <time>2011-04-09T14:23:13Z</time>
      </trkpt>
      <trkpt lat="43.59808" lon="7.02999">
        <ele>169</ele>
        <time>2011-04-09T14:23:16Z</time>
      </trkpt>
      <trkpt lat="43.59806" lon="7.03093">
        <ele>171</ele>
        <time>2011-04-09T14:23:44Z</time>
      </trkpt>
      <trkpt lat="43.59772" lon="7.03181">
        <ele>175</ele>
        <time>2011-04-09T14:24:14Z</time>
      </trkpt>
      <trkpt lat="43.59765" lon="7.03196">
        <ele>176</ele>
        <time>2011-04-09T14:24:22Z</time>
      </trkpt>
      <trkpt lat="43.59757" lon="7.03203">
        <ele>176</ele>
        <time>2011-04-09T14:24:28Z</time>
      </trkpt>
      <trkpt lat="43.59758" lon="7.0321">
        <ele>177</ele>
        <time>2011-04-09T14:24:33Z</time>
      </trkpt>
      <trkpt lat="43.5976" lon="7.03215">
        <ele>180</ele>
        <time>2011-04-09T14:24:54Z</time>
      </trkpt>
      <trkpt lat="43.59763" lon="7.03207">
        <ele>180</ele>
        <time>2011-04-09T14:24:57Z</time>
      </trkpt>
      <trkpt lat="43.59772" lon="7.03184">
        <ele>181</ele>
        <time>2011-04-09T14:25:04Z</time>
      </trkpt>
      <trkpt lat="43.59772" lon="7.03177">
        <ele>181</ele>
        <time>2011-04-09T14:25:07Z</time>
      </trkpt>
      <trkpt lat="43.59767" lon="7.03176">
        <ele>182</ele>
        <time>2011-04-09T14:25:11Z</time>
      </trkpt>
      <trkpt lat="43.59765" lon="7.03182">
        <ele>182</ele>
        <time>2011-04-09T14:25:15Z</time>
      </trkpt>
      <trkpt lat="43.59757" lon="7.03215">
        <ele>183</ele>
        <time>2011-04-09T14:25:38Z</time>
      </trkpt>
      <trkpt lat="43.59761" lon="7.03251">
        <ele>185</ele>
        <time>2011-04-09T14:26:11Z</time>
      </trkpt>
      <trkpt lat="43.5977" lon="7.03283">
        <ele>188</ele>
        <time>2011-04-09T14:26:16Z</time>
      </trkpt>
      <trkpt lat="43.59865" lon="7.03413">
        <ele>193</ele>
        <time>2011-04-09T14:26:48Z</time>
      </trkpt>
      <trkpt lat="43.59873" lon="7.03423">
        <ele>193</ele>
        <time>2011-04-09T14:26:55Z</time>
      </trkpt>
      <trkpt lat="43.59876" lon="7.03418">
        <ele>193</ele>
        <time>2011-04-09T14:27:02Z</time>
      </trkpt>
      <trkpt lat="43.59888" lon="7.03377">
        <ele>192</ele>
        <time>2011-04-09T14:27:32Z</time>
      </trkpt>
      <trkpt lat="43.5994" lon="7.03304">
        <ele>194</ele>
        <time>2011-04-09T14:27:53Z</time>
      </trkpt>
      <trkpt lat="43.59953" lon="7.03234">
        <ele>194</ele>
        <time>2011-04-09T14:28:08Z</time>
      </trkpt>
      <trkpt lat="43.59988" lon="7.03194">
        <ele>195</ele>
        <time>2011-04-09T14:28:19Z</time>
      </trkpt>
      <trkpt lat="43.60009" lon="7.03188">
        <ele>195</ele>
        <time>2011-04-09T14:28:25Z</time>
      </trkpt>
      <trkpt lat="43.6002" lon="7.03192">
        <ele>195</ele>
        <time>2011-04-09T14:28:28Z</time>
      </trkpt>
      <trkpt lat="43.6008" lon="7.03291">
        <ele>198</ele>
        <time>2011-04-09T14:29:00Z</time>
      </trkpt>
      <trkpt lat="43.60122" lon="7.03398">
        <ele>201</ele>
        <time>2011-04-09T14:29:33Z</time>
      </trkpt>
      <trkpt lat="43.6013" lon="7.03427">
        <ele>201</ele>
        <time>2011-04-09T14:29:41Z</time>
      </trkpt>
      <trkpt lat="43.60143" lon="7.03503">
        <ele>201</ele>
        <time>2011-04-09T14:30:06Z</time>
      </trkpt>
      <trkpt lat="43.60142" lon="7.03511">
        <ele>199</ele>
        <time>2011-04-09T14:31:41Z</time>
      </trkpt>
      <trkpt lat="43.60141" lon="7.03518">
        <ele>199</ele>
        <time>2011-04-09T14:31:56Z</time>
      </trkpt>
      <trkpt lat="43.60145" lon="7.03532">
        <ele>198</ele>
        <time>2011-04-09T14:32:02Z</time>
      </trkpt>
      <trkpt lat="43.60137" lon="7.0354">
        <ele>197</ele>
        <time>2011-04-09T14:32:08Z</time>
      </trkpt>
      <trkpt lat="43.60132" lon="7.03539">
        <ele>196</ele>
        <time>2011-04-09T14:32:13Z</time>
      </trkpt>
      <trkpt lat="43.60087" lon="7.03485">
        <ele>197</ele>
        <time>2011-04-09T14:32:47Z</time>
      </trkpt>
      <trkpt lat="43.60024" lon="7.03478">
        <ele>200</ele>
        <time>2011-04-09T14:33:18Z</time>
      </trkpt>
      <trkpt lat="43.59982" lon="7.03507">
        <ele>201</ele>
        <time>2011-04-09T14:33:31Z</time>
      </trkpt>
      <trkpt lat="43.59935" lon="7.03592">
        <ele>200</ele>
        <time>2011-04-09T14:33:55Z</time>
      </trkpt>
      <trkpt lat="43.59938" lon="7.03591">
        <ele>200</ele>
        <time>2011-04-09T14:34:02Z</time>
      </trkpt>
      <trkpt lat="43.59939" lon="7.03583">
        <ele>199</ele>
        <time>2011-04-09T14:34:06Z</time>
      </trkpt>
      <trkpt lat="43.59956" lon="7.03545">
        <ele>200</ele>
        <time>2011-04-09T14:34:19Z</time>
      </trkpt>
      <trkpt lat="43.59972" lon="7.03506">
        <ele>203</ele>
        <time>2011-04-09T14:34:27Z</time>
      </trkpt>
      <trkpt lat="43.59994" lon="7.03485">
        <ele>203</ele>
        <time>2011-04-09T14:34:37Z</time>
      </trkpt>
      <trkpt lat="43.59989" lon="7.03487">
        <ele>203</ele>
        <time>2011-04-09T14:34:44Z</time>
      </trkpt>
      <trkpt lat="43.59977" lon="7.03499">
        <ele>204</ele>
        <time>2011-04-09T14:34:48Z</time>
      </trkpt>
      <trkpt lat="43.59919" lon="7.03599">
        <ele>207</ele>
        <time>2011-04-09T14:35:18Z</time>
      </trkpt>
      <trkpt lat="43.59827" lon="7.03661">
        <ele>207</ele>
        <time>2011-04-09T14:35:49Z</time>
      </trkpt>
      <trkpt lat="43.598" lon="7.03692">
        <ele>207</ele>
        <time>2011-04-09T14:36:26Z</time>
      </trkpt>
      <trkpt lat="43.59797" lon="7.037">
        <ele>207</ele>
        <time>2011-04-09T14:36:35Z</time>
      </trkpt>
      <trkpt lat="43.59793" lon="7.03704">
        <ele>207</ele>
        <time>2011-04-09T14:36:39Z</time>
      </trkpt>
      <trkpt lat="43.5972" lon="7.03733">
        <ele>208</ele>
        <time>2011-04-09T14:37:11Z</time>
      </trkpt>
      <trkpt lat="43.59683" lon="7.03833">
        <ele>207</ele>
        <time>2011-04-09T14:37:42Z</time>
      </trkpt>
      <trkpt lat="43.59668" lon="7.03872">
        <ele>208</ele>
        <time>2011-04-09T14:37:56Z</time>
      </trkpt>
      <trkpt lat="43.59658" lon="7.03874">
        <ele>208</ele>
        <time>2011-04-09T14:38:01Z</time>
      </trkpt>
      <trkpt lat="43.59646" lon="7.03864">
        <ele>207</ele>
        <time>2011-04-09T14:38:13Z</time>
      </trkpt>
      <trkpt lat="43.59643" lon="7.03868">
        <ele>205</ele>
        <time>2011-04-09T14:38:35Z</time>
      </trkpt>
      <trkpt lat="43.59651" lon="7.0388">
        <ele>204</ele>
        <time>2011-04-09T14:39:01Z</time>
      </trkpt>
      <trkpt lat="43.59687" lon="7.03941">
        <ele>201</ele>
        <time>2011-04-09T14:39:20Z</time>
      </trkpt>
      <trkpt lat="43.59698" lon="7.03943">
        <ele>201</ele>
        <time>2011-04-09T14:39:23Z</time>
      </trkpt>
      <trkpt lat="43.59703" lon="7.03937">
        <ele>201</ele>
        <time>2011-04-09T14:39:25Z</time>
      </trkpt>
      <trkpt lat="43.59716" lon="7.03921">
        <ele>201</ele>
        <time>2011-04-09T14:39:30Z</time>
      </trkpt>
      <trkpt lat="43.59741" lon="7.03828">
        <ele>205</ele>
        <time>2011-04-09T14:39:48Z</time>
      </trkpt>
      <trkpt lat="43.5975" lon="7.03823">
        <ele>205</ele>
        <time>2011-04-09T14:39:52Z</time>
      </trkpt>
      <trkpt lat="43.59758" lon="7.03835">
        <ele>204</ele>
        <time>2011-04-09T14:39:55Z</time>
      </trkpt>
      <trkpt lat="43.59772" lon="7.0384">
        <ele>204</ele>
        <time>2011-04-09T14:40:01Z</time>
      </trkpt>
      <trkpt lat="43.5979" lon="7.03833">
        <ele>203</ele>
        <time>2011-04-09T14:40:09Z</time>
      </trkpt>
      <trkpt lat="43.598" lon="7.03838">
        <ele>203</ele>
        <time>2011-04-09T14:40:13Z</time>
      </trkpt>
      <trkpt lat="43.59809" lon="7.03845">
        <ele>203</ele>
        <time>2011-04-09T14:40:16Z</time>
      </trkpt>
      <trkpt lat="43.59849" lon="7.03927">
        <ele>204</ele>
        <time>2011-04-09T14:40:45Z</time>
      </trkpt>
      <trkpt lat="43.59859" lon="7.0393">
        <ele>205</ele>
        <time>2011-04-09T14:40:49Z</time>
      </trkpt>
      <trkpt lat="43.59921" lon="7.03905">
        <ele>205</ele>
        <time>2011-04-09T14:41:10Z</time>
      </trkpt>
      <trkpt lat="43.59935" lon="7.03887">
        <ele>204</ele>
        <time>2011-04-09T14:41:17Z</time>
      </trkpt>
      <trkpt lat="43.59982" lon="7.03864">
        <ele>204</ele>
        <time>2011-04-09T14:42:13Z</time>
      </trkpt>
      <trkpt lat="43.60054" lon="7.03818">
        <ele>203</ele>
        <time>2011-04-09T14:42:38Z</time>
      </trkpt>
      <trkpt lat="43.60078" lon="7.03823">
        <ele>205</ele>
        <time>2011-04-09T14:42:44Z</time>
      </trkpt>
      <trkpt lat="43.60155" lon="7.03793">
        <ele>204</ele>
        <time>2011-04-09T14:43:05Z</time>
      </trkpt>
      <trkpt lat="43.60161" lon="7.03804">
        <ele>204</ele>
        <time>2011-04-09T14:43:10Z</time>
      </trkpt>
      <trkpt lat="43.60163" lon="7.03848">
        <ele>204</ele>
        <time>2011-04-09T14:43:23Z</time>
      </trkpt>
      <trkpt lat="43.60135" lon="7.03932">
        <ele>204</ele>
        <time>2011-04-09T14:43:45Z</time>
      </trkpt>
      <trkpt lat="43.60139" lon="7.03946">
        <ele>204</ele>
        <time>2011-04-09T14:43:48Z</time>
      </trkpt>
      <trkpt lat="43.60146" lon="7.03954">
        <ele>203</ele>
        <time>2011-04-09T14:43:51Z</time>
      </trkpt>
      <trkpt lat="43.60146" lon="7.03969">
        <ele>203</ele>
        <time>2011-04-09T14:43:55Z</time>
      </trkpt>
      <trkpt lat="43.60138" lon="7.0401">
        <ele>201</ele>
        <time>2011-04-09T14:44:05Z</time>
      </trkpt>
      <trkpt lat="43.60145" lon="7.04052">
        <ele>199</ele>
        <time>2011-04-09T14:44:18Z</time>
      </trkpt>
      <trkpt lat="43.60137" lon="7.04063">
        <ele>198</ele>
        <time>2011-04-09T14:44:23Z</time>
      </trkpt>
      <trkpt lat="43.60115" lon="7.04107">
        <ele>194</ele>
        <time>2011-04-09T14:44:39Z</time>
      </trkpt>
      <trkpt lat="43.60119" lon="7.04153">
        <ele>193</ele>
        <time>2011-04-09T14:44:56Z</time>
      </trkpt>
      <trkpt lat="43.60116" lon="7.04166">
        <ele>193</ele>
        <time>2011-04-09T14:45:02Z</time>
      </trkpt>
      <trkpt lat="43.60113" lon="7.04173">
        <ele>192</ele>
        <time>2011-04-09T14:45:49Z</time>
      </trkpt>
      <trkpt lat="43.60105" lon="7.04182">
        <ele>192</ele>
        <time>2011-04-09T14:46:05Z</time>
      </trkpt>
      <trkpt lat="43.6011" lon="7.04183">
        <ele>192</ele>
        <time>2011-04-09T14:46:24Z</time>
      </trkpt>
      <trkpt lat="43.60104" lon="7.04194">
        <ele>192</ele>
        <time>2011-04-09T14:46:37Z</time>
      </trkpt>
      <trkpt lat="43.6009" lon="7.04223">
        <ele>191</ele>
        <time>2011-04-09T14:46:51Z</time>
      </trkpt>
      <trkpt lat="43.6009" lon="7.04314">
        <ele>191</ele>
        <time>2011-04-09T14:47:24Z</time>
      </trkpt>
      <trkpt lat="43.60117" lon="7.04374">
        <ele>191</ele>
        <time>2011-04-09T14:47:42Z</time>
      </trkpt>
      <trkpt lat="43.60116" lon="7.04387">
        <ele>190</ele>
        <time>2011-04-09T14:47:52Z</time>
      </trkpt>
      <trkpt lat="43.60104" lon="7.0439">
        <ele>190</ele>
        <time>2011-04-09T14:47:56Z</time>
      </trkpt>
      <trkpt lat="43.60089" lon="7.04394">
        <ele>189</ele>
        <time>2011-04-09T14:48:02Z</time>
      </trkpt>
      <trkpt lat="43.60086" lon="7.044">
        <ele>189</ele>
        <time>2011-04-09T14:48:05Z</time>
      </trkpt>
      <trkpt lat="43.60088" lon="7.04421">
        <ele>189</ele>
        <time>2011-04-09T14:48:15Z</time>
      </trkpt>
      <trkpt lat="43.60079" lon="7.04426">
        <ele>189</ele>
        <time>2011-04-09T14:48:20Z</time>
      </trkpt>
      <trkpt lat="43.6008" lon="7.0444">
        <ele>188</ele>
        <time>2011-04-09T14:48:26Z</time>
      </trkpt>
      <trkpt lat="43.60093" lon="7.04462">
        <ele>187</ele>
        <time>2011-04-09T14:48:35Z</time>
      </trkpt>
      <trkpt lat="43.60085" lon="7.04472">
        <ele>187</ele>
        <time>2011-04-09T14:48:41Z</time>
      </trkpt>
      <trkpt lat="43.60028" lon="7.04521">
        <ele>185</ele>
        <time>2011-04-09T14:49:05Z</time>
      </trkpt>
      <trkpt lat="43.60024" lon="7.04532">
        <ele>181</ele>
        <time>2011-04-09T14:49:50Z</time>
      </trkpt>
      <trkpt lat="43.60029" lon="7.04534">
        <ele>178</ele>
        <time>2011-04-09T14:50:14Z</time>
      </trkpt>
      <trkpt lat="43.60031" lon="7.0454">
        <ele>177</ele>
        <time>2011-04-09T14:50:17Z</time>
      </trkpt>
      <trkpt lat="43.60071" lon="7.04627">
        <ele>168</ele>
        <time>2011-04-09T14:50:49Z</time>
      </trkpt>
      <trkpt lat="43.60119" lon="7.04717">
        <ele>163</ele>
        <time>2011-04-09T14:51:20Z</time>
      </trkpt>
      <trkpt lat="43.60132" lon="7.04732">
        <ele>162</ele>
        <time>2011-04-09T14:51:29Z</time>
      </trkpt>
      <trkpt lat="43.60127" lon="7.04723">
        <ele>161</ele>
        <time>2011-04-09T14:51:40Z</time>
      </trkpt>
      <trkpt lat="43.60125" lon="7.0473">
        <ele>161</ele>
        <time>2011-04-09T14:51:44Z</time>
      </trkpt>
      <trkpt lat="43.6013" lon="7.04733">
        <ele>161</ele>
        <time>2011-04-09T14:52:02Z</time>
      </trkpt>
      <trkpt lat="43.6013" lon="7.04729">
        <ele>160</ele>
        <time>2011-04-09T14:52:21Z</time>
      </trkpt>
      <trkpt lat="43.60134" lon="7.0473">
        <ele>160</ele>
        <time>2011-04-09T14:52:24Z</time>
      </trkpt>
      <trkpt lat="43.60172" lon="7.04766">
        <ele>162</ele>
        <time>2011-04-09T14:52:56Z</time>
      </trkpt>
      <trkpt lat="43.60212" lon="7.04787">
        <ele>163</ele>
        <time>2011-04-09T14:53:33Z</time>
      </trkpt>
      <trkpt lat="43.60203" lon="7.04783">
        <ele>162</ele>
        <time>2011-04-09T14:53:47Z</time>
      </trkpt>
      <trkpt lat="43.60198" lon="7.04783">
        <ele>162</ele>
        <time>2011-04-09T14:53:50Z</time>
      </trkpt>
      <trkpt lat="43.60198" lon="7.04786">
        <ele>162</ele>
        <time>2011-04-09T14:53:57Z</time>
      </trkpt>
      <trkpt lat="43.60201" lon="7.04785">
        <ele>163</ele>
        <time>2011-04-09T14:54:57Z</time>
      </trkpt>
      <trkpt lat="43.60219" lon="7.04789">
        <ele>164</ele>
        <time>2011-04-09T14:55:18Z</time>
      </trkpt>
      <trkpt lat="43.60228" lon="7.04785">
        <ele>164</ele>
        <time>2011-04-09T14:55:25Z</time>
      </trkpt>
      <trkpt lat="43.60261" lon="7.04795">
        <ele>166</ele>
        <time>2011-04-09T14:55:45Z</time>
      </trkpt>
      <trkpt lat="43.60274" lon="7.04807">
        <ele>166</ele>
        <time>2011-04-09T14:55:53Z</time>
      </trkpt>
      <trkpt lat="43.6028" lon="7.04807">
        <ele>167</ele>
        <time>2011-04-09T14:55:57Z</time>
      </trkpt>
      <trkpt lat="43.60281" lon="7.048">
        <ele>167</ele>
        <time>2011-04-09T14:56:02Z</time>
      </trkpt>
      <trkpt lat="43.60276" lon="7.04789">
        <ele>167</ele>
        <time>2011-04-09T14:56:08Z</time>
      </trkpt>
      <trkpt lat="43.60221" lon="7.04738">
        <ele>166</ele>
        <time>2011-04-09T14:56:41Z</time>
      </trkpt>
      <trkpt lat="43.60213" lon="7.04711">
        <ele>167</ele>
        <time>2011-04-09T14:56:51Z</time>
      </trkpt>
      <trkpt lat="43.60195" lon="7.0462">
        <ele>172</ele>
        <time>2011-04-09T14:57:22Z</time>
      </trkpt>
      <trkpt lat="43.60197" lon="7.04587">
        <ele>178</ele>
        <time>2011-04-09T14:57:27Z</time>
      </trkpt>
      <trkpt lat="43.60231" lon="7.04523">
        <ele>180</ele>
        <time>2011-04-09T14:57:43Z</time>
      </trkpt>
      <trkpt lat="43.60283" lon="7.04447">
        <ele>184</ele>
        <time>2011-04-09T14:58:13Z</time>
      </trkpt>
      <trkpt lat="43.60272" lon="7.04338">
        <ele>189</ele>
        <time>2011-04-09T14:58:46Z</time>
      </trkpt>
      <trkpt lat="43.60256" lon="7.04286">
        <ele>194</ele>
        <time>2011-04-09T14:59:04Z</time>
      </trkpt>
      <trkpt lat="43.60247" lon="7.04279">
        <ele>195</ele>
        <time>2011-04-09T14:59:09Z</time>
      </trkpt>
      <trkpt lat="43.60245" lon="7.04277">
        <ele>195</ele>
        <time>2011-04-09T14:59:22Z</time>
      </trkpt>
      <trkpt lat="43.60244" lon="7.04293">
        <ele>197</ele>
        <time>2011-04-09T14:59:49Z</time>
      </trkpt>
      <trkpt lat="43.60265" lon="7.0442">
        <ele>202</ele>
        <time>2011-04-09T15:00:21Z</time>
      </trkpt>
      <trkpt lat="43.60264" lon="7.04437">
        <ele>203</ele>
        <time>2011-04-09T15:00:24Z</time>
      </trkpt>
      <trkpt lat="43.60257" lon="7.04453">
        <ele>204</ele>
        <time>2011-04-09T15:00:27Z</time>
      </trkpt>
      <trkpt lat="43.60251" lon="7.04463">
        <ele>204</ele>
        <time>2011-04-09T15:00:29Z</time>
      </trkpt>
      <trkpt lat="43.60198" lon="7.04507">
        <ele>198</ele>
        <time>2011-04-09T15:00:43Z</time>
      </trkpt>
      <trkpt lat="43.60186" lon="7.04551">
        <ele>198</ele>
        <time>2011-04-09T15:00:52Z</time>
      </trkpt>
      <trkpt lat="43.60184" lon="7.04614">
        <ele>198</ele>
        <time>2011-04-09T15:01:04Z</time>
      </trkpt>
      <trkpt lat="43.60213" lon="7.04743">
        <ele>195</ele>
        <time>2011-04-09T15:01:34Z</time>
      </trkpt>
      <trkpt lat="43.60218" lon="7.04757">
        <ele>195</ele>
        <time>2011-04-09T15:01:38Z</time>
      </trkpt>
      <trkpt lat="43.60213" lon="7.04774">
        <ele>195</ele>
        <time>2011-04-09T15:01:42Z</time>
      </trkpt>
      <trkpt lat="43.60214" lon="7.04788">
        <ele>194</ele>
        <time>2011-04-09T15:01:45Z</time>
      </trkpt>
      <trkpt lat="43.60219" lon="7.04799">
        <ele>194</ele>
        <time>2011-04-09T15:01:49Z</time>
      </trkpt>
      <trkpt lat="43.60229" lon="7.04798">
        <ele>193</ele>
        <time>2011-04-09T15:01:54Z</time>
      </trkpt>
      <trkpt lat="43.60241" lon="7.04801">
        <ele>192</ele>
        <time>2011-04-09T15:01:59Z</time>
      </trkpt>
      <trkpt lat="43.60248" lon="7.04817">
        <ele>192</ele>
        <time>2011-04-09T15:02:06Z</time>
      </trkpt>
      <trkpt lat="43.60246" lon="7.0483">
        <ele>191</ele>
        <time>2011-04-09T15:02:09Z</time>
      </trkpt>
      <trkpt lat="43.60239" lon="7.04866">
        <ele>191</ele>
        <time>2011-04-09T15:02:18Z</time>
      </trkpt>
      <trkpt lat="43.60226" lon="7.04892">
        <ele>187</ele>
        <time>2011-04-09T15:02:24Z</time>
      </trkpt>
      <trkpt lat="43.60227" lon="7.04925">
        <ele>186</ele>
        <time>2011-04-09T15:02:35Z</time>
      </trkpt>
      <trkpt lat="43.60244" lon="7.05019">
        <ele>182</ele>
        <time>2011-04-09T15:03:06Z</time>
      </trkpt>
      <trkpt lat="43.60238" lon="7.05046">
        <ele>181</ele>
        <time>2011-04-09T15:03:12Z</time>
      </trkpt>
      <trkpt lat="43.60241" lon="7.05054">
        <ele>181</ele>
        <time>2011-04-09T15:03:14Z</time>
      </trkpt>
      <trkpt lat="43.60246" lon="7.05059">
        <ele>180</ele>
        <time>2011-04-09T15:03:16Z</time>
      </trkpt>
      <trkpt lat="43.60257" lon="7.05059">
        <ele>179</ele>
        <time>2011-04-09T15:03:20Z</time>
      </trkpt>
      <trkpt lat="43.60318" lon="7.05002">
        <ele>174</ele>
        <time>2011-04-09T15:03:49Z</time>
      </trkpt>
      <trkpt lat="43.60364" lon="7.04952">
        <ele>174</ele>
        <time>2011-04-09T15:04:05Z</time>
      </trkpt>
      <trkpt lat="43.60366" lon="7.04944">
        <ele>174</ele>
        <time>2011-04-09T15:04:08Z</time>
      </trkpt>
      <trkpt lat="43.60363" lon="7.04938">
        <ele>174</ele>
        <time>2011-04-09T15:04:12Z</time>
      </trkpt>
      <trkpt lat="43.60312" lon="7.049">
        <ele>174</ele>
        <time>2011-04-09T15:04:46Z</time>
      </trkpt>
      <trkpt lat="43.60278" lon="7.04834">
        <ele>174</ele>
        <time>2011-04-09T15:05:09Z</time>
      </trkpt>
      <trkpt lat="43.60272" lon="7.04803">
        <ele>174</ele>
        <time>2011-04-09T15:05:19Z</time>
      </trkpt>
      <trkpt lat="43.60224" lon="7.04766">
        <ele>174</ele>
        <time>2011-04-09T15:05:49Z</time>
      </trkpt>
      <trkpt lat="43.60213" lon="7.04747">
        <ele>174</ele>
        <time>2011-04-09T15:05:57Z</time>
      </trkpt>
      <trkpt lat="43.60198" lon="7.04658">
        <ele>175</ele>
        <time>2011-04-09T15:06:27Z</time>
      </trkpt>
      <trkpt lat="43.60202" lon="7.04564">
        <ele>178</ele>
        <time>2011-04-09T15:06:49Z</time>
      </trkpt>
      <trkpt lat="43.60268" lon="7.04468">
        <ele>182</ele>
        <time>2011-04-09T15:07:19Z</time>
      </trkpt>
      <trkpt lat="43.6028" lon="7.04432">
        <ele>184</ele>
        <time>2011-04-09T15:07:31Z</time>
      </trkpt>
      <trkpt lat="43.60266" lon="7.04329">
        <ele>188</ele>
        <time>2011-04-09T15:08:01Z</time>
      </trkpt>
      <trkpt lat="43.60252" lon="7.04261">
        <ele>191</ele>
        <time>2011-04-09T15:08:23Z</time>
      </trkpt>
      <trkpt lat="43.60243" lon="7.04257">
        <ele>193</ele>
        <time>2011-04-09T15:08:32Z</time>
      </trkpt>
      <trkpt lat="43.60241" lon="7.04257">
        <ele>194</ele>
        <time>2011-04-09T15:08:44Z</time>
      </trkpt>
      <trkpt lat="43.60237" lon="7.04261">
        <ele>194</ele>
        <time>2011-04-09T15:09:09Z</time>
      </trkpt>
      <trkpt lat="43.60234" lon="7.04258">
        <ele>194</ele>
        <time>2011-04-09T15:09:47Z</time>
      </trkpt>
      <trkpt lat="43.60224" lon="7.04265">
        <ele>194</ele>
        <time>2011-04-09T15:10:11Z</time>
      </trkpt>
      <trkpt lat="43.60232" lon="7.04265">
        <ele>194</ele>
        <time>2011-04-09T15:11:03Z</time>
      </trkpt>
      <trkpt lat="43.60238" lon="7.0425">
        <ele>195</ele>
        <time>2011-04-09T15:11:46Z</time>
      </trkpt>
      <trkpt lat="43.60245" lon="7.0424">
        <ele>196</ele>
        <time>2011-04-09T15:11:52Z</time>
      </trkpt>
      <trkpt lat="43.60246" lon="7.04226">
        <ele>197</ele>
        <time>2011-04-09T15:11:56Z</time>
      </trkpt>
      <trkpt lat="43.60243" lon="7.04219">
        <ele>197</ele>
        <time>2011-04-09T15:11:58Z</time>
      </trkpt>
      <trkpt lat="43.60232" lon="7.04211">
        <ele>198</ele>
        <time>2011-04-09T15:12:02Z</time>
      </trkpt>
      <trkpt lat="43.60229" lon="7.04204">
        <ele>198</ele>
        <time>2011-04-09T15:12:05Z</time>
      </trkpt>
      <trkpt lat="43.60231" lon="7.04188">
        <ele>199</ele>
        <time>2011-04-09T15:12:09Z</time>
      </trkpt>
      <trkpt lat="43.60244" lon="7.04152">
        <ele>201</ele>
        <time>2011-04-09T15:12:16Z</time>
      </trkpt>
      <trkpt lat="43.60256" lon="7.04127">
        <ele>201</ele>
        <time>2011-04-09T15:12:23Z</time>
      </trkpt>
      <trkpt lat="43.60256" lon="7.04084">
        <ele>201</ele>
        <time>2011-04-09T15:12:33Z</time>
      </trkpt>
      <trkpt lat="43.60262" lon="7.0407">
        <ele>202</ele>
        <time>2011-04-09T15:12:36Z</time>
      </trkpt>
      <trkpt lat="43.60272" lon="7.04019">
        <ele>205</ele>
        <time>2011-04-09T15:12:45Z</time>
      </trkpt>
      <trkpt lat="43.6027" lon="7.03949">
        <ele>204</ele>
        <time>2011-04-09T15:12:56Z</time>
      </trkpt>
      <trkpt lat="43.60277" lon="7.03942">
        <ele>204</ele>
        <time>2011-04-09T15:13:01Z</time>
      </trkpt>
      <trkpt lat="43.60291" lon="7.03935">
        <ele>204</ele>
        <time>2011-04-09T15:13:15Z</time>
      </trkpt>
      <trkpt lat="43.60298" lon="7.03932">
        <ele>203</ele>
        <time>2011-04-09T15:13:59Z</time>
      </trkpt>
      <trkpt lat="43.60309" lon="7.03929">
        <ele>203</ele>
        <time>2011-04-09T15:14:03Z</time>
      </trkpt>
      <trkpt lat="43.6031" lon="7.03935">
        <ele>203</ele>
        <time>2011-04-09T15:14:06Z</time>
      </trkpt>
      <trkpt lat="43.60316" lon="7.0404">
        <ele>202</ele>
        <time>2011-04-09T15:14:36Z</time>
      </trkpt>
      <trkpt lat="43.60321" lon="7.04066">
        <ele>202</ele>
        <time>2011-04-09T15:14:41Z</time>
      </trkpt>
      <trkpt lat="43.60365" lon="7.04134">
        <ele>201</ele>
        <time>2011-04-09T15:15:00Z</time>
      </trkpt>
      <trkpt lat="43.60396" lon="7.04159">
        <ele>201</ele>
        <time>2011-04-09T15:15:30Z</time>
      </trkpt>
      <trkpt lat="43.604" lon="7.04165">
        <ele>201</ele>
        <time>2011-04-09T15:15:40Z</time>
      </trkpt>
      <trkpt lat="43.60456" lon="7.04228">
        <ele>201</ele>
        <time>2011-04-09T15:16:13Z</time>
      </trkpt>
      <trkpt lat="43.60469" lon="7.04264">
        <ele>201</ele>
        <time>2011-04-09T15:16:24Z</time>
      </trkpt>
      <trkpt lat="43.60494" lon="7.04365">
        <ele>202</ele>
        <time>2011-04-09T15:16:55Z</time>
      </trkpt>
      <trkpt lat="43.60498" lon="7.04378">
        <ele>202</ele>
        <time>2011-04-09T15:16:59Z</time>
      </trkpt>
      <trkpt lat="43.60512" lon="7.04394">
        <ele>202</ele>
        <time>2011-04-09T15:17:05Z</time>
      </trkpt>
      <trkpt lat="43.6053" lon="7.04472">
        <ele>202</ele>
        <time>2011-04-09T15:17:26Z</time>
      </trkpt>
      <trkpt lat="43.60549" lon="7.04503">
        <ele>202</ele>
        <time>2011-04-09T15:17:48Z</time>
      </trkpt>
      <trkpt lat="43.60551" lon="7.04509">
        <ele>201</ele>
        <time>2011-04-09T15:17:53Z</time>
      </trkpt>
      <trkpt lat="43.60567" lon="7.04544">
        <ele>199</ele>
        <time>2011-04-09T15:17:59Z</time>
      </trkpt>
      <trkpt lat="43.60575" lon="7.04559">
        <ele>195</ele>
        <time>2011-04-09T15:18:02Z</time>
      </trkpt>
      <trkpt lat="43.60583" lon="7.04592">
        <ele>192</ele>
        <time>2011-04-09T15:18:08Z</time>
      </trkpt>
      <trkpt lat="43.6059" lon="7.04674">
        <ele>191</ele>
        <time>2011-04-09T15:18:24Z</time>
      </trkpt>
      <trkpt lat="43.60583" lon="7.04705">
        <ele>193</ele>
        <time>2011-04-09T15:18:29Z</time>
      </trkpt>
      <trkpt lat="43.6053" lon="7.04856">
        <ele>190</ele>
        <time>2011-04-09T15:19:00Z</time>
      </trkpt>
      <trkpt lat="43.60523" lon="7.04869">
        <ele>191</ele>
        <time>2011-04-09T15:19:03Z</time>
      </trkpt>
      <trkpt lat="43.60514" lon="7.04882">
        <ele>191</ele>
        <time>2011-04-09T15:19:06Z</time>
      </trkpt>
      <trkpt lat="43.60483" lon="7.04952">
        <ele>187</ele>
        <time>2011-04-09T15:19:31Z</time>
      </trkpt>
      <trkpt lat="43.60485" lon="7.04958">
        <ele>186</ele>
        <time>2011-04-09T15:20:00Z</time>
      </trkpt>
      <trkpt lat="43.60494" lon="7.04964">
        <ele>186</ele>
        <time>2011-04-09T15:20:05Z</time>
      </trkpt>
      <trkpt lat="43.60504" lon="7.04967">
        <ele>185</ele>
        <time>2011-04-09T15:20:13Z</time>
      </trkpt>
      <trkpt lat="43.60536" lon="7.04941">
        <ele>182</ele>
        <time>2011-04-09T15:20:34Z</time>
      </trkpt>
      <trkpt lat="43.60596" lon="7.04864">
        <ele>180</ele>
        <time>2011-04-09T15:21:05Z</time>
      </trkpt>
      <trkpt lat="43.60644" lon="7.04813">
        <ele>178</ele>
        <time>2011-04-09T15:21:36Z</time>
      </trkpt>
      <trkpt lat="43.6071" lon="7.04746">
        <ele>176</ele>
        <time>2011-04-09T15:22:07Z</time>
      </trkpt>
      <trkpt lat="43.60742" lon="7.04693">
        <ele>175</ele>
        <time>2011-04-09T15:22:26Z</time>
      </trkpt>
      <trkpt lat="43.60748" lon="7.0467">
        <ele>175</ele>
        <time>2011-04-09T15:22:31Z</time>
      </trkpt>
      <trkpt lat="43.60751" lon="7.04627">
        <ele>172</ele>
        <time>2011-04-09T15:22:39Z</time>
      </trkpt>
      <trkpt lat="43.60761" lon="7.04588">
        <ele>172</ele>
        <time>2011-04-09T15:22:47Z</time>
      </trkpt>
      <trkpt lat="43.60776" lon="7.04576">
        <ele>172</ele>
        <time>2011-04-09T15:22:52Z</time>
      </trkpt>
      <trkpt lat="43.60823" lon="7.04563">
        <ele>173</ele>
        <time>2011-04-09T15:23:09Z</time>
      </trkpt>
      <trkpt lat="43.60827" lon="7.04569">
        <ele>173</ele>
        <time>2011-04-09T15:23:11Z</time>
      </trkpt>
      <trkpt lat="43.6083" lon="7.04579">
        <ele>173</ele>
        <time>2011-04-09T15:23:14Z</time>
      </trkpt>
      <trkpt lat="43.60835" lon="7.04676">
        <ele>171</ele>
        <time>2011-04-09T15:23:39Z</time>
      </trkpt>
      <trkpt lat="43.60841" lon="7.04686">
        <ele>171</ele>
        <time>2011-04-09T15:23:42Z</time>
      </trkpt>
      <trkpt lat="43.60858" lon="7.04692">
        <ele>171</ele>
        <time>2011-04-09T15:23:49Z</time>
      </trkpt>
      <trkpt lat="43.60868" lon="7.04689">
        <ele>171</ele>
        <time>2011-04-09T15:23:56Z</time>
      </trkpt>
      <trkpt lat="43.60874" lon="7.04689">
        <ele>171</ele>
        <time>2011-04-09T15:24:02Z</time>
      </trkpt>
      <trkpt lat="43.60873" lon="7.04689">
        <ele>172</ele>
        <time>2011-04-09T15:26:26Z</time>
      </trkpt>
      <trkpt lat="43.60873" lon="7.04682">
        <ele>172</ele>
        <time>2011-04-09T15:26:29Z</time>
      </trkpt>
      <trkpt lat="43.60888" lon="7.0462">
        <ele>170</ele>
        <time>2011-04-09T15:26:53Z</time>
      </trkpt>
      <trkpt lat="43.60918" lon="7.04569">
        <ele>173</ele>
        <time>2011-04-09T15:27:25Z</time>
      </trkpt>
      <trkpt lat="43.6092" lon="7.04553">
        <ele>174</ele>
        <time>2011-04-09T15:27:35Z</time>
      </trkpt>
      <trkpt lat="43.60917" lon="7.04558">
        <ele>175</ele>
        <time>2011-04-09T15:27:43Z</time>
      </trkpt>
      <trkpt lat="43.60924" lon="7.04549">
        <ele>176</ele>
        <time>2011-04-09T15:27:52Z</time>
      </trkpt>
      <trkpt lat="43.60944" lon="7.04484">
        <ele>181</ele>
        <time>2011-04-09T15:28:26Z</time>
      </trkpt>
      <trkpt lat="43.60948" lon="7.0448">
        <ele>181</ele>
        <time>2011-04-09T15:28:30Z</time>
      </trkpt>
      <trkpt lat="43.60947" lon="7.04474">
        <ele>181</ele>
        <time>2011-04-09T15:28:49Z</time>
      </trkpt>
      <trkpt lat="43.60952" lon="7.04473">
        <ele>181</ele>
        <time>2011-04-09T15:29:09Z</time>
      </trkpt>
      <trkpt lat="43.60956" lon="7.04475">
        <ele>181</ele>
        <time>2011-04-09T15:29:49Z</time>
      </trkpt>
      <trkpt lat="43.60951" lon="7.04464">
        <ele>180</ele>
        <time>2011-04-09T15:30:08Z</time>
      </trkpt>
      <trkpt lat="43.6093" lon="7.04412">
        <ele>180</ele>
        <time>2011-04-09T15:30:45Z</time>
      </trkpt>
      <trkpt lat="43.60929" lon="7.04396">
        <ele>180</ele>
        <time>2011-04-09T15:30:54Z</time>
      </trkpt>
      <trkpt lat="43.60927" lon="7.04324">
        <ele>182</ele>
        <time>2011-04-09T15:31:27Z</time>
      </trkpt>
      <trkpt lat="43.6093" lon="7.04233">
        <ele>184</ele>
        <time>2011-04-09T15:31:59Z</time>
      </trkpt>
      <trkpt lat="43.60926" lon="7.04188">
        <ele>186</ele>
        <time>2011-04-09T15:32:15Z</time>
      </trkpt>
      <trkpt lat="43.6093" lon="7.04184">
        <ele>186</ele>
        <time>2011-04-09T15:32:58Z</time>
      </trkpt>
      <trkpt lat="43.60933" lon="7.04182">
        <ele>186</ele>
        <time>2011-04-09T15:33:41Z</time>
      </trkpt>
      <trkpt lat="43.60932" lon="7.04176">
        <ele>186</ele>
        <time>2011-04-09T15:34:03Z</time>
      </trkpt>
      <trkpt lat="43.60937" lon="7.04171">
        <ele>187</ele>
        <time>2011-04-09T15:34:11Z</time>
      </trkpt>
      <trkpt lat="43.60948" lon="7.04171">
        <ele>188</ele>
        <time>2011-04-09T15:34:18Z</time>
      </trkpt>
      <trkpt lat="43.60959" lon="7.04175">
        <ele>188</ele>
        <time>2011-04-09T15:34:22Z</time>
      </trkpt>
      <trkpt lat="43.60972" lon="7.04177">
        <ele>190</ele>
        <time>2011-04-09T15:34:25Z</time>
      </trkpt>
      <trkpt lat="43.61005" lon="7.04212">
        <ele>191</ele>
        <time>2011-04-09T15:34:32Z</time>
      </trkpt>
      <trkpt lat="43.61143" lon="7.0437">
        <ele>182</ele>
        <time>2011-04-09T15:35:03Z</time>
      </trkpt>
      <trkpt lat="43.61149" lon="7.04372">
        <ele>182</ele>
        <time>2011-04-09T15:35:05Z</time>
      </trkpt>
      <trkpt lat="43.61165" lon="7.04359">
        <ele>182</ele>
        <time>2011-04-09T15:35:12Z</time>
      </trkpt>
      <trkpt lat="43.61185" lon="7.0431">
        <ele>183</ele>
        <time>2011-04-09T15:35:29Z</time>
      </trkpt>
      <trkpt lat="43.61185" lon="7.04302">
        <ele>184</ele>
        <time>2011-04-09T15:35:31Z</time>
      </trkpt>
      <trkpt lat="43.61188" lon="7.04277">
        <ele>185</ele>
        <time>2011-04-09T15:35:36Z</time>
      </trkpt>
      <trkpt lat="43.6119" lon="7.04267">
        <ele>185</ele>
        <time>2011-04-09T15:35:38Z</time>
      </trkpt>
      <trkpt lat="43.61205" lon="7.0425">
        <ele>188</ele>
        <time>2011-04-09T15:35:42Z</time>
      </trkpt>
      <trkpt lat="43.61222" lon="7.04242">
        <ele>189</ele>
        <time>2011-04-09T15:35:46Z</time>
      </trkpt>
      <trkpt lat="43.61265" lon="7.04231">
        <ele>189</ele>
        <time>2011-04-09T15:35:56Z</time>
      </trkpt>
      <trkpt lat="43.61274" lon="7.04218">
        <ele>189</ele>
        <time>2011-04-09T15:35:59Z</time>
      </trkpt>
      <trkpt lat="43.6128" lon="7.04208">
        <ele>190</ele>
        <time>2011-04-09T15:36:01Z</time>
      </trkpt>
      <trkpt lat="43.61282" lon="7.04188">
        <ele>190</ele>
        <time>2011-04-09T15:36:04Z</time>
      </trkpt>
      <trkpt lat="43.61278" lon="7.04144">
        <ele>191</ele>
        <time>2011-04-09T15:36:11Z</time>
      </trkpt>
      <trkpt lat="43.61293" lon="7.04109">
        <ele>191</ele>
        <time>2011-04-09T15:36:19Z</time>
      </trkpt>
      <trkpt lat="43.61287" lon="7.04099">
        <ele>191</ele>
        <time>2011-04-09T15:36:23Z</time>
      </trkpt>
      <trkpt lat="43.6127" lon="7.04094">
        <ele>190</ele>
        <time>2011-04-09T15:36:27Z</time>
      </trkpt>
      <trkpt lat="43.61242" lon="7.04106">
        <ele>190</ele>
        <time>2011-04-09T15:36:38Z</time>
      </trkpt>
      <trkpt lat="43.61235" lon="7.04097">
        <ele>189</ele>
        <time>2011-04-09T15:36:46Z</time>
      </trkpt>
      <trkpt lat="43.6124" lon="7.04084">
        <ele>189</ele>
        <time>2011-04-09T15:36:49Z</time>
      </trkpt>
      <trkpt lat="43.61264" lon="7.04049">
        <ele>189</ele>
        <time>2011-04-09T15:36:59Z</time>
      </trkpt>
      <trkpt lat="43.61276" lon="7.04046">
        <ele>189</ele>
        <time>2011-04-09T15:37:02Z</time>
      </trkpt>
      <trkpt lat="43.61325" lon="7.04062">
        <ele>185</ele>
        <time>2011-04-09T15:37:16Z</time>
      </trkpt>
      <trkpt lat="43.61346" lon="7.04095">
        <ele>183</ele>
        <time>2011-04-09T15:37:26Z</time>
      </trkpt>
      <trkpt lat="43.61364" lon="7.04228">
        <ele>174</ele>
        <time>2011-04-09T15:38:00Z</time>
      </trkpt>
      <trkpt lat="43.61379" lon="7.04289">
        <ele>170</ele>
        <time>2011-04-09T15:38:19Z</time>
      </trkpt>
      <trkpt lat="43.61384" lon="7.04288">
        <ele>169</ele>
        <time>2011-04-09T15:38:21Z</time>
      </trkpt>
      <trkpt lat="43.61411" lon="7.04269">
        <ele>167</ele>
        <time>2011-04-09T15:38:36Z</time>
      </trkpt>
      <trkpt lat="43.6142" lon="7.04271">
        <ele>166</ele>
        <time>2011-04-09T15:38:43Z</time>
      </trkpt>
      <trkpt lat="43.61437" lon="7.04254">
        <ele>165</ele>
        <time>2011-04-09T15:38:52Z</time>
      </trkpt>
      <trkpt lat="43.61451" lon="7.04235">
        <ele>164</ele>
        <time>2011-04-09T15:39:01Z</time>
      </trkpt>
      <trkpt lat="43.61456" lon="7.04232">
        <ele>164</ele>
        <time>2011-04-09T15:39:05Z</time>
      </trkpt>
      <trkpt lat="43.61501" lon="7.0417">
        <ele>161</ele>
        <time>2011-04-09T15:39:30Z</time>
      </trkpt>
      <trkpt lat="43.61521" lon="7.04177">
        <ele>161</ele>
        <time>2011-04-09T15:39:41Z</time>
      </trkpt>
      <trkpt lat="43.61538" lon="7.04194">
        <ele>159</ele>
        <time>2011-04-09T15:39:56Z</time>
      </trkpt>
      <trkpt lat="43.61541" lon="7.04198">
        <ele>157</ele>
        <time>2011-04-09T15:40:01Z</time>
      </trkpt>
      <trkpt lat="43.61546" lon="7.04194">
        <ele>155</ele>
        <time>2011-04-09T15:40:11Z</time>
      </trkpt>
      <trkpt lat="43.61576" lon="7.04138">
        <ele>150</ele>
        <time>2011-04-09T15:40:39Z</time>
      </trkpt>
      <trkpt lat="43.61575" lon="7.04135">
        <ele>150</ele>
        <time>2011-04-09T15:40:45Z</time>
      </trkpt>
      <trkpt lat="43.61569" lon="7.0414">
        <ele>149</ele>
        <time>2011-04-09T15:40:48Z</time>
      </trkpt>
      <trkpt lat="43.61572" lon="7.04142">
        <ele>147</ele>
        <time>2011-04-09T15:41:10Z</time>
      </trkpt>
      <trkpt lat="43.61606" lon="7.0414">
        <ele>146</ele>
        <time>2011-04-09T15:41:22Z</time>
      </trkpt>
      <trkpt lat="43.61611" lon="7.04143">
        <ele>146</ele>
        <time>2011-04-09T15:41:24Z</time>
      </trkpt>
      <trkpt lat="43.61633" lon="7.04187">
        <ele>145</ele>
        <time>2011-04-09T15:41:40Z</time>
      </trkpt>
      <trkpt lat="43.61637" lon="7.04312">
        <ele>139</ele>
        <time>2011-04-09T15:42:02Z</time>
      </trkpt>
      <trkpt lat="43.61623" lon="7.04341">
        <ele>139</ele>
        <time>2011-04-09T15:42:18Z</time>
      </trkpt>
      <trkpt lat="43.61621" lon="7.04368">
        <ele>139</ele>
        <time>2011-04-09T15:42:23Z</time>
      </trkpt>
      <trkpt lat="43.61629" lon="7.04396">
        <ele>138</ele>
        <time>2011-04-09T15:42:28Z</time>
      </trkpt>
      <trkpt lat="43.61696" lon="7.04568">
        <ele>136</ele>
        <time>2011-04-09T15:42:59Z</time>
      </trkpt>
      <trkpt lat="43.61771" lon="7.04728">
        <ele>135</ele>
        <time>2011-04-09T15:43:31Z</time>
      </trkpt>
      <trkpt lat="43.61816" lon="7.0487">
        <ele>132</ele>
        <time>2011-04-09T15:44:02Z</time>
      </trkpt>
      <trkpt lat="43.61842" lon="7.04932">
        <ele>132</ele>
        <time>2011-04-09T15:44:24Z</time>
      </trkpt>
      <trkpt lat="43.61974" lon="7.04952">
        <ele>136</ele>
        <time>2011-04-09T15:44:54Z</time>
      </trkpt>
      <trkpt lat="43.62021" lon="7.0498">
        <ele>136</ele>
        <time>2011-04-09T15:45:04Z</time>
      </trkpt>
      <trkpt lat="43.62036" lon="7.04995">
        <ele>135</ele>
        <time>2011-04-09T15:45:08Z</time>
      </trkpt>
      <trkpt lat="43.62042" lon="7.04997">
        <ele>134</ele>
        <time>2011-04-09T15:45:10Z</time>
      </trkpt>
      <trkpt lat="43.62047" lon="7.04995">
        <ele>134</ele>
        <time>2011-04-09T15:45:12Z</time>
      </trkpt>
      <trkpt lat="43.62077" lon="7.04968">
        <ele>134</ele>
        <time>2011-04-09T15:45:24Z</time>
      </trkpt>
      <trkpt lat="43.62082" lon="7.04968">
        <ele>134</ele>
        <time>2011-04-09T15:45:26Z</time>
      </trkpt>
      <trkpt lat="43.62086" lon="7.04972">
        <ele>134</ele>
        <time>2011-04-09T15:45:28Z</time>
      </trkpt>
      <trkpt lat="43.62094" lon="7.04989">
        <ele>134</ele>
        <time>2011-04-09T15:45:32Z</time>
      </trkpt>
      <trkpt lat="43.62107" lon="7.05024">
        <ele>130</ele>
        <time>2011-04-09T15:45:38Z</time>
      </trkpt>
      <trkpt lat="43.62108" lon="7.0504">
        <ele>130</ele>
        <time>2011-04-09T15:45:41Z</time>
      </trkpt>
      <trkpt lat="43.62108" lon="7.05046">
        <ele>129</ele>
        <time>2011-04-09T15:45:50Z</time>
      </trkpt>
      <trkpt lat="43.62113" lon="7.05051">
        <ele>129</ele>
        <time>2011-04-09T15:45:58Z</time>
      </trkpt>
      <trkpt lat="43.62117" lon="7.05053">
        <ele>128</ele>
        <time>2011-04-09T15:46:15Z</time>
      </trkpt>
      <trkpt lat="43.62119" lon="7.05059">
        <ele>128</ele>
        <time>2011-04-09T15:46:50Z</time>
      </trkpt>
      <trkpt lat="43.62117" lon="7.05067">
        <ele>128</ele>
        <time>2011-04-09T15:46:53Z</time>
      </trkpt>
      <trkpt lat="43.62126" lon="7.05098">
        <ele>130</ele>
        <time>2011-04-09T15:47:19Z</time>
      </trkpt>
      <trkpt lat="43.62124" lon="7.05107">
        <ele>131</ele>
        <time>2011-04-09T15:48:04Z</time>
      </trkpt>
      <trkpt lat="43.62117" lon="7.05136">
        <ele>132</ele>
        <time>2011-04-09T15:48:18Z</time>
      </trkpt>
      <trkpt lat="43.6212" lon="7.05141">
        <ele>133</ele>
        <time>2011-04-09T15:48:53Z</time>
      </trkpt>
      <trkpt lat="43.62127" lon="7.05153">
        <ele>134</ele>
        <time>2011-04-09T15:49:06Z</time>
      </trkpt>
      <trkpt lat="43.6213" lon="7.05167">
        <ele>134</ele>
        <time>2011-04-09T15:49:13Z</time>
      </trkpt>
      <trkpt lat="43.62131" lon="7.0517">
        <ele>134</ele>
        <time>2011-04-09T15:49:19Z</time>
      </trkpt>
      <trkpt lat="43.62136" lon="7.05161">
        <ele>135</ele>
        <time>2011-04-09T15:49:31Z</time>
      </trkpt>
      <trkpt lat="43.62146" lon="7.05153">
        <ele>135</ele>
        <time>2011-04-09T15:49:51Z</time>
      </trkpt>
      <trkpt lat="43.62152" lon="7.05153">
        <ele>136</ele>
        <time>2011-04-09T15:50:23Z</time>
      </trkpt>
    </trkseg>
  </trk>
</gpx>